<?xml version='1.0' encoding='UTF-8'?><gpx version="1.1" creator="JPX - https://github.com/jenetics/jpx" xmlns="http://www.topografix.com/GPX/1/1"><trk><trkseg><trkpt lat="43.6896372" lon="12.8595012"><ele>109.00000000000001</ele><time>2026-04-04T09:44:34.692Z</time></trkpt><trkpt lat="43.6895409" lon="12.8594376"><ele>109.0</ele><time>2026-04-04T09:44:36.693Z</time></trkpt><trkpt lat="43.6894796" lon="12.8593961"><ele>109.0</ele><time>2026-04-04T09:44:37.693Z</time></trkpt><trkpt lat="43.6894209" lon="12.8593523"><ele>109.0</ele><time>2026-04-04T09:44:38.692Z</time></trkpt><trkpt lat="43.6893672" lon="12.8593004"><ele>109.00000000000001</ele><time>2026-04-04T09:44:39.693Z</time></trkpt><trkpt lat="43.6893136" lon="12.8592278"><ele>109.0</ele><time>2026-04-04T09:44:40.692Z</time></trkpt><trkpt lat="43.6892573" lon="12.859158"><ele>109.66666666666667</ele><time>2026-04-04T09:44:41.693Z</time></trkpt><trkpt lat="43.6891976" lon="12.8590795"><ele>110.33333333333334</ele><time>2026-04-04T09:44:42.693Z</time></trkpt><trkpt lat="43.6891333" lon="12.8590069"><ele>111.0</ele><time>2026-04-04T09:44:43.693Z</time></trkpt><trkpt lat="43.6890696" lon="12.8589114"><ele>111.66666666666666</ele><time>2026-04-04T09:44:44.694Z</time></trkpt><trkpt lat="43.689002" lon="12.8588184"><ele>112.33333333333333</ele><time>2026-04-04T09:44:45.693Z</time></trkpt><trkpt lat="43.6889368" lon="12.8587349"><ele>113.0</ele><time>2026-04-04T09:44:46.693Z</time></trkpt><trkpt lat="43.6888793" lon="12.8586699"><ele>113.0</ele><time>2026-04-04T09:44:47.692Z</time></trkpt><trkpt lat="43.6888133" lon="12.8586136"><ele>113.00000000000001</ele><time>2026-04-04T09:44:49.693Z</time></trkpt><trkpt lat="43.6887664" lon="12.8587201"><ele>113.00000000000001</ele><time>2026-04-04T09:44:52.694Z</time></trkpt><trkpt lat="43.6887036" lon="12.8588348"><ele>113.0</ele><time>2026-04-04T09:44:54.692Z</time></trkpt><trkpt lat="43.6886275" lon="12.8589848"><ele>113.0</ele><time>2026-04-04T09:44:56.693Z</time></trkpt><trkpt lat="43.6885786" lon="12.8590647"><ele>112.33333333333333</ele><time>2026-04-04T09:44:57.692Z</time></trkpt><trkpt lat="43.6885239" lon="12.8591491"><ele>111.66666666666666</ele><time>2026-04-04T09:44:58.693Z</time></trkpt><trkpt lat="43.6884679" lon="12.8592431"><ele>111.0</ele><time>2026-04-04T09:44:59.694Z</time></trkpt><trkpt lat="43.6884076" lon="12.8593234"><ele>110.33333333333334</ele><time>2026-04-04T09:45:00.692Z</time></trkpt><trkpt lat="43.6883555" lon="12.8593972"><ele>109.66666666666667</ele><time>2026-04-04T09:45:01.692Z</time></trkpt><trkpt lat="43.6883042" lon="12.859457"><ele>109.0</ele><time>2026-04-04T09:45:02.693Z</time></trkpt><trkpt lat="43.6882431" lon="12.8595049"><ele>108.33333333333334</ele><time>2026-04-04T09:45:03.693Z</time></trkpt><trkpt lat="43.688165" lon="12.859512"><ele>107.66666666666667</ele><time>2026-04-04T09:45:04.692Z</time></trkpt><trkpt lat="43.6880749" lon="12.8595015"><ele>107.0</ele><time>2026-04-04T09:45:05.692Z</time></trkpt><trkpt lat="43.6879908" lon="12.8594775"><ele>106.33333333333334</ele><time>2026-04-04T09:45:06.692Z</time></trkpt><trkpt lat="43.6879051" lon="12.8594428"><ele>105.66666666666667</ele><time>2026-04-04T09:45:07.693Z</time></trkpt><trkpt lat="43.6878117" lon="12.8593987"><ele>105.0</ele><time>2026-04-04T09:45:08.693Z</time></trkpt><trkpt lat="43.6877238" lon="12.8593543"><ele>104.8</ele><time>2026-04-04T09:45:09.693Z</time></trkpt><trkpt lat="43.6876347" lon="12.85931"><ele>104.6</ele><time>2026-04-04T09:45:10.693Z</time></trkpt><trkpt lat="43.6875459" lon="12.8592803"><ele>104.4</ele><time>2026-04-04T09:45:11.692Z</time></trkpt><trkpt lat="43.6874497" lon="12.8592358"><ele>104.2</ele><time>2026-04-04T09:45:12.693Z</time></trkpt><trkpt lat="43.6873626" lon="12.8591979"><ele>104.0</ele><time>2026-04-04T09:45:13.694Z</time></trkpt><trkpt lat="43.687292" lon="12.8591544"><ele>103.99999999999999</ele><time>2026-04-04T09:45:14.693Z</time></trkpt><trkpt lat="43.6872236" lon="12.8591202"><ele>104.0</ele><time>2026-04-04T09:45:15.693Z</time></trkpt><trkpt lat="43.6871681" lon="12.859079"><ele>104.0</ele><time>2026-04-04T09:45:16.693Z</time></trkpt><trkpt lat="43.6870837" lon="12.8590575"><ele>104.0</ele><time>2026-04-04T09:45:18.693Z</time></trkpt><trkpt lat="43.6870152" lon="12.8591535"><ele>103.99999999999999</ele><time>2026-04-04T09:45:40.692Z</time></trkpt><trkpt lat="43.6869966" lon="12.8593144"><ele>104.0</ele><time>2026-04-04T09:45:42.693Z</time></trkpt><trkpt lat="43.6869917" lon="12.8594065"><ele>103.2</ele><time>2026-04-04T09:45:43.692Z</time></trkpt><trkpt lat="43.6869884" lon="12.8595157"><ele>102.4</ele><time>2026-04-04T09:45:44.693Z</time></trkpt><trkpt lat="43.6869775" lon="12.8596419"><ele>101.6</ele><time>2026-04-04T09:45:45.692Z</time></trkpt><trkpt lat="43.6869671" lon="12.8597767"><ele>100.8</ele><time>2026-04-04T09:45:46.692Z</time></trkpt><trkpt lat="43.6869551" lon="12.8599085"><ele>100.0</ele><time>2026-04-04T09:45:47.693Z</time></trkpt><trkpt lat="43.6869463" lon="12.8600508"><ele>99.75</ele><time>2026-04-04T09:45:48.692Z</time></trkpt><trkpt lat="43.6869342" lon="12.8602049"><ele>99.5</ele><time>2026-04-04T09:45:49.692Z</time></trkpt><trkpt lat="43.6869219" lon="12.8603713"><ele>99.25</ele><time>2026-04-04T09:45:50.693Z</time></trkpt><trkpt lat="43.6869078" lon="12.8605437"><ele>99.0</ele><time>2026-04-04T09:45:51.694Z</time></trkpt><trkpt lat="43.6869008" lon="12.8607099"><ele>99.0</ele><time>2026-04-04T09:45:52.693Z</time></trkpt><trkpt lat="43.6868915" lon="12.8608738"><ele>99.0</ele><time>2026-04-04T09:45:53.693Z</time></trkpt><trkpt lat="43.6868832" lon="12.8610387"><ele>99.0</ele><time>2026-04-04T09:45:54.692Z</time></trkpt><trkpt lat="43.6868688" lon="12.861192"><ele>99.0</ele><time>2026-04-04T09:45:55.692Z</time></trkpt><trkpt lat="43.6868599" lon="12.8613382"><ele>100.16666666666667</ele><time>2026-04-04T09:45:56.693Z</time></trkpt><trkpt lat="43.6868523" lon="12.8614712"><ele>101.33333333333334</ele><time>2026-04-04T09:45:57.693Z</time></trkpt><trkpt lat="43.6868468" lon="12.8615977"><ele>102.5</ele><time>2026-04-04T09:45:58.693Z</time></trkpt><trkpt lat="43.686841" lon="12.8617181"><ele>103.66666666666667</ele><time>2026-04-04T09:45:59.694Z</time></trkpt><trkpt lat="43.6868382" lon="12.8618297"><ele>104.83333333333334</ele><time>2026-04-04T09:46:00.692Z</time></trkpt><trkpt lat="43.6868313" lon="12.8619333"><ele>106.0</ele><time>2026-04-04T09:46:01.692Z</time></trkpt><trkpt lat="43.6868664" lon="12.8620956"><ele>105.50000000000001</ele><time>2026-04-04T09:46:03.692Z</time></trkpt><trkpt lat="43.6869195" lon="12.8621443"><ele>105.0</ele><time>2026-04-04T09:46:04.692Z</time></trkpt><trkpt lat="43.6869864" lon="12.8621621"><ele>104.5</ele><time>2026-04-04T09:46:05.693Z</time></trkpt><trkpt lat="43.6870726" lon="12.862166"><ele>104.0</ele><time>2026-04-04T09:46:06.692Z</time></trkpt><trkpt lat="43.6871649" lon="12.8621699"><ele>103.50000000000001</ele><time>2026-04-04T09:46:07.692Z</time></trkpt><trkpt lat="43.6872594" lon="12.8621947"><ele>103.0</ele><time>2026-04-04T09:46:08.692Z</time></trkpt><trkpt lat="43.6873534" lon="12.8622297"><ele>103.0</ele><time>2026-04-04T09:46:09.692Z</time></trkpt><trkpt lat="43.6874501" lon="12.8622777"><ele>103.0</ele><time>2026-04-04T09:46:10.692Z</time></trkpt><trkpt lat="43.6875544" lon="12.8623217"><ele>103.0</ele><time>2026-04-04T09:46:11.692Z</time></trkpt><trkpt lat="43.6876528" lon="12.8623724"><ele>103.0</ele><time>2026-04-04T09:46:12.693Z</time></trkpt><trkpt lat="43.6877642" lon="12.8624187"><ele>103.0</ele><time>2026-04-04T09:46:13.693Z</time></trkpt><trkpt lat="43.687874" lon="12.8624711"><ele>103.5</ele><time>2026-04-04T09:46:14.693Z</time></trkpt><trkpt lat="43.6879873" lon="12.8625161"><ele>104.0</ele><time>2026-04-04T09:46:15.693Z</time></trkpt><trkpt lat="43.6881095" lon="12.8625679"><ele>104.5</ele><time>2026-04-04T09:46:16.693Z</time></trkpt><trkpt lat="43.688229" lon="12.862617"><ele>105.0</ele><time>2026-04-04T09:46:17.695Z</time></trkpt><trkpt lat="43.6883482" lon="12.8626566"><ele>105.0</ele><time>2026-04-04T09:46:18.692Z</time></trkpt><trkpt lat="43.6884662" lon="12.8627066"><ele>105.0</ele><time>2026-04-04T09:46:19.693Z</time></trkpt><trkpt lat="43.6885834" lon="12.8627502"><ele>105.0</ele><time>2026-04-04T09:46:20.692Z</time></trkpt><trkpt lat="43.6887104" lon="12.862787"><ele>105.0</ele><time>2026-04-04T09:46:21.691Z</time></trkpt><trkpt lat="43.6888337" lon="12.8628288"><ele>105.0</ele><time>2026-04-04T09:46:22.692Z</time></trkpt><trkpt lat="43.6889548" lon="12.8628672"><ele>105.0</ele><time>2026-04-04T09:46:23.694Z</time></trkpt><trkpt lat="43.6890827" lon="12.8629022"><ele>105.0</ele><time>2026-04-04T09:46:24.693Z</time></trkpt><trkpt lat="43.6892115" lon="12.8629433"><ele>105.0</ele><time>2026-04-04T09:46:25.692Z</time></trkpt><trkpt lat="43.6893389" lon="12.8629801"><ele>103.75</ele><time>2026-04-04T09:46:26.692Z</time></trkpt><trkpt lat="43.6894677" lon="12.8630206"><ele>102.5</ele><time>2026-04-04T09:46:27.693Z</time></trkpt><trkpt lat="43.6895997" lon="12.8630565"><ele>101.25</ele><time>2026-04-04T09:46:28.692Z</time></trkpt><trkpt lat="43.6897304" lon="12.8630926"><ele>100.0</ele><time>2026-04-04T09:46:29.692Z</time></trkpt><trkpt lat="43.6898598" lon="12.8631338"><ele>100.0</ele><time>2026-04-04T09:46:30.694Z</time></trkpt><trkpt lat="43.6899905" lon="12.8631722"><ele>100.0</ele><time>2026-04-04T09:46:31.693Z</time></trkpt><trkpt lat="43.6901231" lon="12.8632251"><ele>100.0</ele><time>2026-04-04T09:46:32.693Z</time></trkpt><trkpt lat="43.6902512" lon="12.8632693"><ele>100.0</ele><time>2026-04-04T09:46:33.692Z</time></trkpt><trkpt lat="43.6903775" lon="12.8633082"><ele>100.0</ele><time>2026-04-04T09:46:34.693Z</time></trkpt><trkpt lat="43.6904883" lon="12.8633502"><ele>100.0</ele><time>2026-04-04T09:46:35.693Z</time></trkpt><trkpt lat="43.6906075" lon="12.8634156"><ele>100.0</ele><time>2026-04-04T09:46:36.692Z</time></trkpt><trkpt lat="43.6907308" lon="12.8634878"><ele>100.0</ele><time>2026-04-04T09:46:37.692Z</time></trkpt><trkpt lat="43.6908555" lon="12.8635668"><ele>100.0</ele><time>2026-04-04T09:46:38.692Z</time></trkpt><trkpt lat="43.6909764" lon="12.8636434"><ele>100.0</ele><time>2026-04-04T09:46:39.694Z</time></trkpt><trkpt lat="43.6911041" lon="12.8637224"><ele>100.0</ele><time>2026-04-04T09:46:40.692Z</time></trkpt><trkpt lat="43.6912244" lon="12.8638021"><ele>100.0</ele><time>2026-04-04T09:46:41.693Z</time></trkpt><trkpt lat="43.691362" lon="12.8638989"><ele>100.0</ele><time>2026-04-04T09:46:42.692Z</time></trkpt><trkpt lat="43.691491" lon="12.8639818"><ele>100.0</ele><time>2026-04-04T09:46:43.692Z</time></trkpt><trkpt lat="43.6916106" lon="12.864084"><ele>100.0</ele><time>2026-04-04T09:46:44.692Z</time></trkpt><trkpt lat="43.6917336" lon="12.8642002"><ele>100.0</ele><time>2026-04-04T09:46:45.692Z</time></trkpt><trkpt lat="43.6918539" lon="12.864325"><ele>98.66666666666667</ele><time>2026-04-04T09:46:46.693Z</time></trkpt><trkpt lat="43.6919751" lon="12.864453"><ele>97.33333333333334</ele><time>2026-04-04T09:46:47.692Z</time></trkpt><trkpt lat="43.6920965" lon="12.8645856"><ele>96.0</ele><time>2026-04-04T09:46:48.692Z</time></trkpt><trkpt lat="43.6922277" lon="12.8647202"><ele>96.0</ele><time>2026-04-04T09:46:49.692Z</time></trkpt><trkpt lat="43.692347" lon="12.8648531"><ele>96.0</ele><time>2026-04-04T09:46:50.692Z</time></trkpt><trkpt lat="43.6924679" lon="12.8649899"><ele>96.0</ele><time>2026-04-04T09:46:51.692Z</time></trkpt><trkpt lat="43.6925917" lon="12.8651264"><ele>96.33333333333334</ele><time>2026-04-04T09:46:52.693Z</time></trkpt><trkpt lat="43.6927099" lon="12.8652592"><ele>96.66666666666667</ele><time>2026-04-04T09:46:53.692Z</time></trkpt><trkpt lat="43.6928299" lon="12.8653958"><ele>97.0</ele><time>2026-04-04T09:46:54.692Z</time></trkpt><trkpt lat="43.6929526" lon="12.8655257"><ele>97.0</ele><time>2026-04-04T09:46:55.693Z</time></trkpt><trkpt lat="43.6930748" lon="12.8656635"><ele>97.0</ele><time>2026-04-04T09:46:56.692Z</time></trkpt><trkpt lat="43.6931957" lon="12.8658008"><ele>97.0</ele><time>2026-04-04T09:46:57.693Z</time></trkpt><trkpt lat="43.6933178" lon="12.865938"><ele>97.66666666666667</ele><time>2026-04-04T09:46:58.692Z</time></trkpt><trkpt lat="43.6934402" lon="12.8660763"><ele>98.33333333333334</ele><time>2026-04-04T09:46:59.692Z</time></trkpt><trkpt lat="43.6935632" lon="12.8662105"><ele>99.0</ele><time>2026-04-04T09:47:00.693Z</time></trkpt><trkpt lat="43.6936883" lon="12.8663496"><ele>99.0</ele><time>2026-04-04T09:47:01.694Z</time></trkpt><trkpt lat="43.6938146" lon="12.8664877"><ele>99.0</ele><time>2026-04-04T09:47:02.692Z</time></trkpt><trkpt lat="43.6939468" lon="12.8666213"><ele>99.0</ele><time>2026-04-04T09:47:03.692Z</time></trkpt><trkpt lat="43.6940839" lon="12.8667367"><ele>100.0</ele><time>2026-04-04T09:47:04.694Z</time></trkpt><trkpt lat="43.6942253" lon="12.866828"><ele>101.0</ele><time>2026-04-04T09:47:05.692Z</time></trkpt><trkpt lat="43.6943777" lon="12.8668981"><ele>102.0</ele><time>2026-04-04T09:47:06.694Z</time></trkpt><trkpt lat="43.6945308" lon="12.8669526"><ele>103.66666666666666</ele><time>2026-04-04T09:47:07.692Z</time></trkpt><trkpt lat="43.6946839" lon="12.8669852"><ele>105.33333333333333</ele><time>2026-04-04T09:47:08.692Z</time></trkpt><trkpt lat="43.6948446" lon="12.8670079"><ele>107.0</ele><time>2026-04-04T09:47:09.692Z</time></trkpt><trkpt lat="43.6950032" lon="12.8670123"><ele>107.0</ele><time>2026-04-04T09:47:10.694Z</time></trkpt><trkpt lat="43.6951564" lon="12.8670172"><ele>107.0</ele><time>2026-04-04T09:47:11.692Z</time></trkpt><trkpt lat="43.6953118" lon="12.8670225"><ele>107.0</ele><time>2026-04-04T09:47:12.692Z</time></trkpt><trkpt lat="43.6954645" lon="12.8670252"><ele>107.33333333333333</ele><time>2026-04-04T09:47:13.692Z</time></trkpt><trkpt lat="43.695617" lon="12.8670324"><ele>107.66666666666666</ele><time>2026-04-04T09:47:14.692Z</time></trkpt><trkpt lat="43.6957762" lon="12.8670299"><ele>108.0</ele><time>2026-04-04T09:47:15.692Z</time></trkpt><trkpt lat="43.6959279" lon="12.867028"><ele>108.0</ele><time>2026-04-04T09:47:16.692Z</time></trkpt><trkpt lat="43.6960781" lon="12.8670143"><ele>108.0</ele><time>2026-04-04T09:47:17.692Z</time></trkpt><trkpt lat="43.6962331" lon="12.8669976"><ele>108.0</ele><time>2026-04-04T09:47:18.692Z</time></trkpt><trkpt lat="43.696386" lon="12.8669747"><ele>108.25</ele><time>2026-04-04T09:47:19.693Z</time></trkpt><trkpt lat="43.6965397" lon="12.8669558"><ele>108.5</ele><time>2026-04-04T09:47:20.693Z</time></trkpt><trkpt lat="43.6966862" lon="12.8669335"><ele>108.75</ele><time>2026-04-04T09:47:21.692Z</time></trkpt><trkpt lat="43.6968196" lon="12.8669118"><ele>109.0</ele><time>2026-04-04T09:47:22.693Z</time></trkpt><trkpt lat="43.6969488" lon="12.8668908"><ele>109.75</ele><time>2026-04-04T09:47:23.692Z</time></trkpt><trkpt lat="43.6970708" lon="12.8668719"><ele>110.5</ele><time>2026-04-04T09:47:24.692Z</time></trkpt><trkpt lat="43.6971992" lon="12.8668546"><ele>111.25</ele><time>2026-04-04T09:47:25.692Z</time></trkpt><trkpt lat="43.6973229" lon="12.8668352"><ele>112.0</ele><time>2026-04-04T09:47:26.692Z</time></trkpt><trkpt lat="43.6974445" lon="12.8668093"><ele>112.0</ele><time>2026-04-04T09:47:27.692Z</time></trkpt><trkpt lat="43.6975679" lon="12.8667873"><ele>112.0</ele><time>2026-04-04T09:47:28.692Z</time></trkpt><trkpt lat="43.6976911" lon="12.8667609"><ele>112.0</ele><time>2026-04-04T09:47:29.693Z</time></trkpt><trkpt lat="43.6978131" lon="12.8667288"><ele>112.0</ele><time>2026-04-04T09:47:30.693Z</time></trkpt><trkpt lat="43.6979346" lon="12.8667036"><ele>110.5</ele><time>2026-04-04T09:47:31.693Z</time></trkpt><trkpt lat="43.6980564" lon="12.8666708"><ele>109.0</ele><time>2026-04-04T09:47:32.694Z</time></trkpt><trkpt lat="43.6981704" lon="12.8666539"><ele>107.5</ele><time>2026-04-04T09:47:33.692Z</time></trkpt><trkpt lat="43.6982912" lon="12.8666445"><ele>106.0</ele><time>2026-04-04T09:47:34.693Z</time></trkpt><trkpt lat="43.6984145" lon="12.8666428"><ele>106.0</ele><time>2026-04-04T09:47:35.692Z</time></trkpt><trkpt lat="43.698539" lon="12.8666582"><ele>106.0</ele><time>2026-04-04T09:47:36.693Z</time></trkpt><trkpt lat="43.6986592" lon="12.8666975"><ele>106.0</ele><time>2026-04-04T09:47:37.692Z</time></trkpt><trkpt lat="43.6987761" lon="12.8667492"><ele>106.0</ele><time>2026-04-04T09:47:38.692Z</time></trkpt><trkpt lat="43.6988919" lon="12.8668076"><ele>107.0</ele><time>2026-04-04T09:47:39.692Z</time></trkpt><trkpt lat="43.6989999" lon="12.8668767"><ele>108.0</ele><time>2026-04-04T09:47:40.692Z</time></trkpt><trkpt lat="43.6990954" lon="12.8669526"><ele>109.0</ele><time>2026-04-04T09:47:41.692Z</time></trkpt><trkpt lat="43.6991812" lon="12.867024"><ele>110.0</ele><time>2026-04-04T09:47:42.692Z</time></trkpt><trkpt lat="43.6992581" lon="12.8670958"><ele>111.0</ele><time>2026-04-04T09:47:43.692Z</time></trkpt><trkpt lat="43.6993288" lon="12.8671644"><ele>111.0</ele><time>2026-04-04T09:47:44.693Z</time></trkpt><trkpt lat="43.6993959" lon="12.8672271"><ele>111.0</ele><time>2026-04-04T09:47:45.693Z</time></trkpt><trkpt lat="43.699463" lon="12.8672902"><ele>111.0</ele><time>2026-04-04T09:47:46.692Z</time></trkpt><trkpt lat="43.6995296" lon="12.8673467"><ele>111.0</ele><time>2026-04-04T09:47:47.692Z</time></trkpt><trkpt lat="43.6996016" lon="12.8673936"><ele>111.0</ele><time>2026-04-04T09:47:48.692Z</time></trkpt><trkpt lat="43.6996746" lon="12.8674375"><ele>111.0</ele><time>2026-04-04T09:47:49.692Z</time></trkpt><trkpt lat="43.6997394" lon="12.86749"><ele>110.66666666666667</ele><time>2026-04-04T09:47:50.692Z</time></trkpt><trkpt lat="43.6998092" lon="12.8675475"><ele>110.33333333333334</ele><time>2026-04-04T09:47:51.692Z</time></trkpt><trkpt lat="43.6998859" lon="12.8676134"><ele>110.0</ele><time>2026-04-04T09:47:52.692Z</time></trkpt><trkpt lat="43.6999583" lon="12.8676764"><ele>109.66666666666667</ele><time>2026-04-04T09:47:53.692Z</time></trkpt><trkpt lat="43.7000349" lon="12.8677457"><ele>109.33333333333334</ele><time>2026-04-04T09:47:54.692Z</time></trkpt><trkpt lat="43.700116" lon="12.8678201"><ele>109.0</ele><time>2026-04-04T09:47:55.692Z</time></trkpt><trkpt lat="43.7001937" lon="12.8678874"><ele>108.50000000000001</ele><time>2026-04-04T09:47:56.692Z</time></trkpt><trkpt lat="43.7002699" lon="12.8679567"><ele>108.0</ele><time>2026-04-04T09:47:57.693Z</time></trkpt><trkpt lat="43.7003382" lon="12.8680254"><ele>107.5</ele><time>2026-04-04T09:47:58.693Z</time></trkpt><trkpt lat="43.7004023" lon="12.8680933"><ele>107.0</ele><time>2026-04-04T09:47:59.693Z</time></trkpt><trkpt lat="43.7004613" lon="12.8681467"><ele>106.50000000000001</ele><time>2026-04-04T09:48:00.693Z</time></trkpt><trkpt lat="43.7005517" lon="12.8682472"><ele>106.0</ele><time>2026-04-04T09:48:02.692Z</time></trkpt><trkpt lat="43.700615" lon="12.8683498"><ele>106.0</ele><time>2026-04-04T09:48:04.692Z</time></trkpt><trkpt lat="43.7006644" lon="12.8684962"><ele>106.0</ele><time>2026-04-04T09:48:06.693Z</time></trkpt><trkpt lat="43.7006897" lon="12.868586"><ele>106.0</ele><time>2026-04-04T09:48:07.693Z</time></trkpt><trkpt lat="43.7007091" lon="12.8686971"><ele>106.0</ele><time>2026-04-04T09:48:08.692Z</time></trkpt><trkpt lat="43.7007278" lon="12.8688242"><ele>106.0</ele><time>2026-04-04T09:48:09.693Z</time></trkpt><trkpt lat="43.700746" lon="12.868951"><ele>106.0</ele><time>2026-04-04T09:48:10.692Z</time></trkpt><trkpt lat="43.7007608" lon="12.8690893"><ele>106.0</ele><time>2026-04-04T09:48:11.693Z</time></trkpt><trkpt lat="43.7007719" lon="12.8692379"><ele>106.0</ele><time>2026-04-04T09:48:12.693Z</time></trkpt><trkpt lat="43.7007893" lon="12.869392"><ele>106.0</ele><time>2026-04-04T09:48:13.693Z</time></trkpt><trkpt lat="43.7008018" lon="12.8695487"><ele>106.0</ele><time>2026-04-04T09:48:14.692Z</time></trkpt><trkpt lat="43.7008199" lon="12.8697002"><ele>106.0</ele><time>2026-04-04T09:48:15.693Z</time></trkpt><trkpt lat="43.7008347" lon="12.8698522"><ele>106.0</ele><time>2026-04-04T09:48:16.692Z</time></trkpt><trkpt lat="43.7008423" lon="12.8700161"><ele>106.0</ele><time>2026-04-04T09:48:17.693Z</time></trkpt><trkpt lat="43.7008534" lon="12.8701882"><ele>106.0</ele><time>2026-04-04T09:48:18.692Z</time></trkpt><trkpt lat="43.7008599" lon="12.8703561"><ele>106.25</ele><time>2026-04-04T09:48:19.693Z</time></trkpt><trkpt lat="43.7008627" lon="12.87053"><ele>106.5</ele><time>2026-04-04T09:48:20.693Z</time></trkpt><trkpt lat="43.7008748" lon="12.870702"><ele>106.75</ele><time>2026-04-04T09:48:21.692Z</time></trkpt><trkpt lat="43.7008811" lon="12.87087"><ele>107.0</ele><time>2026-04-04T09:48:22.692Z</time></trkpt><trkpt lat="43.7008888" lon="12.8710401"><ele>107.75</ele><time>2026-04-04T09:48:23.693Z</time></trkpt><trkpt lat="43.7008991" lon="12.8712073"><ele>108.5</ele><time>2026-04-04T09:48:24.692Z</time></trkpt><trkpt lat="43.7009088" lon="12.8713696"><ele>109.25</ele><time>2026-04-04T09:48:25.692Z</time></trkpt><trkpt lat="43.7009201" lon="12.8715352"><ele>110.0</ele><time>2026-04-04T09:48:26.692Z</time></trkpt><trkpt lat="43.7009363" lon="12.8717035"><ele>109.25</ele><time>2026-04-04T09:48:27.693Z</time></trkpt><trkpt lat="43.7009574" lon="12.871877"><ele>108.5</ele><time>2026-04-04T09:48:28.692Z</time></trkpt><trkpt lat="43.700996" lon="12.8720378"><ele>107.75</ele><time>2026-04-04T09:48:29.692Z</time></trkpt><trkpt lat="43.7010451" lon="12.8722026"><ele>107.0</ele><time>2026-04-04T09:48:30.692Z</time></trkpt><trkpt lat="43.7010979" lon="12.872348"><ele>107.0</ele><time>2026-04-04T09:48:31.692Z</time></trkpt><trkpt lat="43.7011525" lon="12.8724813"><ele>106.99999999999999</ele><time>2026-04-04T09:48:32.693Z</time></trkpt><trkpt lat="43.7012031" lon="12.8725981"><ele>106.99999999999999</ele><time>2026-04-04T09:48:33.692Z</time></trkpt><trkpt lat="43.7012531" lon="12.87271"><ele>107.0</ele><time>2026-04-04T09:48:34.693Z</time></trkpt><trkpt lat="43.7013094" lon="12.8728258"><ele>107.0</ele><time>2026-04-04T09:48:35.693Z</time></trkpt><trkpt lat="43.701375" lon="12.8729427"><ele>106.5</ele><time>2026-04-04T09:48:36.692Z</time></trkpt><trkpt lat="43.7014425" lon="12.8730732"><ele>106.0</ele><time>2026-04-04T09:48:37.692Z</time></trkpt><trkpt lat="43.7015148" lon="12.8732223"><ele>105.5</ele><time>2026-04-04T09:48:38.693Z</time></trkpt><trkpt lat="43.7015872" lon="12.8733709"><ele>105.0</ele><time>2026-04-04T09:48:39.693Z</time></trkpt><trkpt lat="43.7016518" lon="12.8735261"><ele>106.5</ele><time>2026-04-04T09:48:40.692Z</time></trkpt><trkpt lat="43.7017093" lon="12.873687"><ele>108.0</ele><time>2026-04-04T09:48:41.692Z</time></trkpt><trkpt lat="43.701758" lon="12.8738484"><ele>109.5</ele><time>2026-04-04T09:48:42.692Z</time></trkpt><trkpt lat="43.7018009" lon="12.8740219"><ele>111.0</ele><time>2026-04-04T09:48:43.693Z</time></trkpt><trkpt lat="43.7018357" lon="12.8741915"><ele>111.75</ele><time>2026-04-04T09:48:44.692Z</time></trkpt><trkpt lat="43.70187" lon="12.8743691"><ele>112.5</ele><time>2026-04-04T09:48:45.692Z</time></trkpt><trkpt lat="43.7019062" lon="12.8745586"><ele>113.25</ele><time>2026-04-04T09:48:46.693Z</time></trkpt><trkpt lat="43.70194" lon="12.8747439"><ele>114.0</ele><time>2026-04-04T09:48:47.692Z</time></trkpt><trkpt lat="43.7019738" lon="12.8749279"><ele>111.25</ele><time>2026-04-04T09:48:48.692Z</time></trkpt><trkpt lat="43.7020067" lon="12.8751177"><ele>108.5</ele><time>2026-04-04T09:48:49.691Z</time></trkpt><trkpt lat="43.7020358" lon="12.8753078"><ele>105.75</ele><time>2026-04-04T09:48:50.692Z</time></trkpt><trkpt lat="43.7020646" lon="12.8755001"><ele>103.0</ele><time>2026-04-04T09:48:51.692Z</time></trkpt><trkpt lat="43.7020954" lon="12.8756937"><ele>103.0</ele><time>2026-04-04T09:48:52.692Z</time></trkpt><trkpt lat="43.7021225" lon="12.8758845"><ele>103.0</ele><time>2026-04-04T09:48:53.693Z</time></trkpt><trkpt lat="43.7021532" lon="12.8760739"><ele>103.0</ele><time>2026-04-04T09:48:54.692Z</time></trkpt><trkpt lat="43.7021839" lon="12.8762636"><ele>103.0</ele><time>2026-04-04T09:48:55.692Z</time></trkpt><trkpt lat="43.702216" lon="12.876457"><ele>103.25</ele><time>2026-04-04T09:48:56.692Z</time></trkpt><trkpt lat="43.7022463" lon="12.8766505"><ele>103.5</ele><time>2026-04-04T09:48:57.692Z</time></trkpt><trkpt lat="43.7022767" lon="12.8768363"><ele>103.75</ele><time>2026-04-04T09:48:58.694Z</time></trkpt><trkpt lat="43.7023061" lon="12.8770128"><ele>104.0</ele><time>2026-04-04T09:48:59.692Z</time></trkpt><trkpt lat="43.7023328" lon="12.8771619"><ele>104.5</ele><time>2026-04-04T09:49:00.692Z</time></trkpt><trkpt lat="43.7023592" lon="12.8773178"><ele>105.0</ele><time>2026-04-04T09:49:01.693Z</time></trkpt><trkpt lat="43.7023774" lon="12.8774699"><ele>105.5</ele><time>2026-04-04T09:49:02.692Z</time></trkpt><trkpt lat="43.7023953" lon="12.8776295"><ele>106.0</ele><time>2026-04-04T09:49:03.692Z</time></trkpt><trkpt lat="43.7024147" lon="12.8777939"><ele>107.25</ele><time>2026-04-04T09:49:04.691Z</time></trkpt><trkpt lat="43.7024293" lon="12.8779561"><ele>108.5</ele><time>2026-04-04T09:49:05.692Z</time></trkpt><trkpt lat="43.7024395" lon="12.8781212"><ele>109.75</ele><time>2026-04-04T09:49:06.692Z</time></trkpt><trkpt lat="43.7024498" lon="12.8782839"><ele>111.0</ele><time>2026-04-04T09:49:07.692Z</time></trkpt><trkpt lat="43.7024555" lon="12.8784321"><ele>111.19999999999999</ele><time>2026-04-04T09:49:08.693Z</time></trkpt><trkpt lat="43.7024546" lon="12.8785739"><ele>111.39999999999999</ele><time>2026-04-04T09:49:09.692Z</time></trkpt><trkpt lat="43.7024548" lon="12.8787086"><ele>111.6</ele><time>2026-04-04T09:49:10.692Z</time></trkpt><trkpt lat="43.7024446" lon="12.8788419"><ele>111.8</ele><time>2026-04-04T09:49:11.692Z</time></trkpt><trkpt lat="43.702425" lon="12.878975"><ele>112.0</ele><time>2026-04-04T09:49:12.692Z</time></trkpt><trkpt lat="43.7023994" lon="12.8791082"><ele>112.0</ele><time>2026-04-04T09:49:13.691Z</time></trkpt><trkpt lat="43.7023726" lon="12.879244"><ele>111.99999999999999</ele><time>2026-04-04T09:49:14.692Z</time></trkpt><trkpt lat="43.7023391" lon="12.8793699"><ele>111.99999999999999</ele><time>2026-04-04T09:49:15.691Z</time></trkpt><trkpt lat="43.7022943" lon="12.8794778"><ele>112.0</ele><time>2026-04-04T09:49:16.691Z</time></trkpt><trkpt lat="43.7022393" lon="12.879581"><ele>112.0</ele><time>2026-04-04T09:49:17.692Z</time></trkpt><trkpt lat="43.7021737" lon="12.8796793"><ele>111.8</ele><time>2026-04-04T09:49:18.691Z</time></trkpt><trkpt lat="43.7021173" lon="12.8797799"><ele>111.6</ele><time>2026-04-04T09:49:19.693Z</time></trkpt><trkpt lat="43.7020699" lon="12.8798823"><ele>111.39999999999999</ele><time>2026-04-04T09:49:20.692Z</time></trkpt><trkpt lat="43.7020292" lon="12.8799954"><ele>111.19999999999999</ele><time>2026-04-04T09:49:21.692Z</time></trkpt><trkpt lat="43.701995" lon="12.8801216"><ele>111.0</ele><time>2026-04-04T09:49:22.692Z</time></trkpt><trkpt lat="43.7019609" lon="12.8802436"><ele>110.8</ele><time>2026-04-04T09:49:23.692Z</time></trkpt><trkpt lat="43.7019241" lon="12.8803658"><ele>110.6</ele><time>2026-04-04T09:49:24.692Z</time></trkpt><trkpt lat="43.7018808" lon="12.8804843"><ele>110.4</ele><time>2026-04-04T09:49:25.692Z</time></trkpt><trkpt lat="43.7018316" lon="12.880597"><ele>110.2</ele><time>2026-04-04T09:49:26.693Z</time></trkpt><trkpt lat="43.7017785" lon="12.8807145"><ele>110.0</ele><time>2026-04-04T09:49:27.691Z</time></trkpt><trkpt lat="43.7017206" lon="12.8808357"><ele>110.16666666666666</ele><time>2026-04-04T09:49:28.693Z</time></trkpt><trkpt lat="43.7016693" lon="12.8809457"><ele>110.33333333333333</ele><time>2026-04-04T09:49:29.692Z</time></trkpt><trkpt lat="43.7016124" lon="12.8810533"><ele>110.5</ele><time>2026-04-04T09:49:30.692Z</time></trkpt><trkpt lat="43.7015624" lon="12.8811536"><ele>110.66666666666666</ele><time>2026-04-04T09:49:31.692Z</time></trkpt><trkpt lat="43.7015232" lon="12.8812487"><ele>110.83333333333333</ele><time>2026-04-04T09:49:32.692Z</time></trkpt><trkpt lat="43.7014942" lon="12.8813428"><ele>111.0</ele><time>2026-04-04T09:49:33.692Z</time></trkpt><trkpt lat="43.7014857" lon="12.8814352"><ele>111.0</ele><time>2026-04-04T09:49:34.693Z</time></trkpt><trkpt lat="43.7015538" lon="12.8815673"><ele>111.0</ele><time>2026-04-04T09:49:36.692Z</time></trkpt><trkpt lat="43.701621" lon="12.8816055"><ele>111.0</ele><time>2026-04-04T09:49:37.692Z</time></trkpt><trkpt lat="43.701707" lon="12.8816236"><ele>111.0</ele><time>2026-04-04T09:49:38.693Z</time></trkpt><trkpt lat="43.7017961" lon="12.8816483"><ele>111.0</ele><time>2026-04-04T09:49:39.692Z</time></trkpt><trkpt lat="43.7018901" lon="12.8816732"><ele>110.4</ele><time>2026-04-04T09:49:40.692Z</time></trkpt><trkpt lat="43.7019847" lon="12.8816981"><ele>109.8</ele><time>2026-04-04T09:49:41.692Z</time></trkpt><trkpt lat="43.7020872" lon="12.8817211"><ele>109.20000000000002</ele><time>2026-04-04T09:49:42.692Z</time></trkpt><trkpt lat="43.70219" lon="12.8817524"><ele>108.60000000000001</ele><time>2026-04-04T09:49:43.692Z</time></trkpt><trkpt lat="43.702292" lon="12.8817814"><ele>108.0</ele><time>2026-04-04T09:49:44.691Z</time></trkpt><trkpt lat="43.70239" lon="12.8818152"><ele>107.4</ele><time>2026-04-04T09:49:45.692Z</time></trkpt><trkpt lat="43.7024926" lon="12.8818661"><ele>106.80000000000001</ele><time>2026-04-04T09:49:46.692Z</time></trkpt><trkpt lat="43.7025963" lon="12.8819127"><ele>106.2</ele><time>2026-04-04T09:49:47.693Z</time></trkpt><trkpt lat="43.7026998" lon="12.8819736"><ele>105.6</ele><time>2026-04-04T09:49:48.693Z</time></trkpt><trkpt lat="43.7028081" lon="12.8820327"><ele>105.0</ele><time>2026-04-04T09:49:49.692Z</time></trkpt><trkpt lat="43.7029197" lon="12.882101"><ele>104.75</ele><time>2026-04-04T09:49:50.692Z</time></trkpt><trkpt lat="43.703032" lon="12.8821697"><ele>104.5</ele><time>2026-04-04T09:49:51.692Z</time></trkpt><trkpt lat="43.703136" lon="12.8822527"><ele>104.25</ele><time>2026-04-04T09:49:52.692Z</time></trkpt><trkpt lat="43.7032347" lon="12.8823418"><ele>104.0</ele><time>2026-04-04T09:49:53.692Z</time></trkpt><trkpt lat="43.7033368" lon="12.8824314"><ele>104.0</ele><time>2026-04-04T09:49:54.693Z</time></trkpt><trkpt lat="43.7034373" lon="12.8825217"><ele>104.0</ele><time>2026-04-04T09:49:55.692Z</time></trkpt><trkpt lat="43.7035391" lon="12.8826103"><ele>104.0</ele><time>2026-04-04T09:49:56.692Z</time></trkpt><trkpt lat="43.7036468" lon="12.8826989"><ele>104.0</ele><time>2026-04-04T09:49:57.693Z</time></trkpt><trkpt lat="43.7037525" lon="12.8827928"><ele>103.25</ele><time>2026-04-04T09:49:58.691Z</time></trkpt><trkpt lat="43.7038542" lon="12.8828871"><ele>102.5</ele><time>2026-04-04T09:49:59.691Z</time></trkpt><trkpt lat="43.7039546" lon="12.8829764"><ele>101.75</ele><time>2026-04-04T09:50:00.693Z</time></trkpt><trkpt lat="43.7040601" lon="12.8830627"><ele>101.0</ele><time>2026-04-04T09:50:01.693Z</time></trkpt><trkpt lat="43.7041543" lon="12.8831491"><ele>101.0</ele><time>2026-04-04T09:50:02.693Z</time></trkpt><trkpt lat="43.7042555" lon="12.8832308"><ele>101.0</ele><time>2026-04-04T09:50:03.692Z</time></trkpt><trkpt lat="43.7043721" lon="12.883298"><ele>101.0</ele><time>2026-04-04T09:50:04.693Z</time></trkpt><trkpt lat="43.7044823" lon="12.8833615"><ele>101.0</ele><time>2026-04-04T09:50:05.692Z</time></trkpt><trkpt lat="43.7045948" lon="12.8834278"><ele>101.0</ele><time>2026-04-04T09:50:06.692Z</time></trkpt><trkpt lat="43.7047115" lon="12.8835036"><ele>101.0</ele><time>2026-04-04T09:50:07.692Z</time></trkpt><trkpt lat="43.704809" lon="12.8835703"><ele>101.0</ele><time>2026-04-04T09:50:08.691Z</time></trkpt><trkpt lat="43.7049134" lon="12.883638"><ele>101.0</ele><time>2026-04-04T09:50:09.692Z</time></trkpt><trkpt lat="43.7050156" lon="12.8837061"><ele>101.0</ele><time>2026-04-04T09:50:10.692Z</time></trkpt><trkpt lat="43.7051236" lon="12.8837723"><ele>101.0</ele><time>2026-04-04T09:50:11.692Z</time></trkpt><trkpt lat="43.7052293" lon="12.8838439"><ele>101.0</ele><time>2026-04-04T09:50:12.692Z</time></trkpt><trkpt lat="43.7053213" lon="12.8839085"><ele>101.0</ele><time>2026-04-04T09:50:13.693Z</time></trkpt><trkpt lat="43.7054296" lon="12.883964"><ele>100.6</ele><time>2026-04-04T09:50:14.693Z</time></trkpt><trkpt lat="43.7055339" lon="12.8840218"><ele>100.19999999999999</ele><time>2026-04-04T09:50:15.692Z</time></trkpt><trkpt lat="43.7056304" lon="12.8840771"><ele>99.80000000000001</ele><time>2026-04-04T09:50:16.692Z</time></trkpt><trkpt lat="43.7057172" lon="12.8841383"><ele>99.4</ele><time>2026-04-04T09:50:17.692Z</time></trkpt><trkpt lat="43.705797" lon="12.8841864"><ele>99.0</ele><time>2026-04-04T09:50:18.692Z</time></trkpt><trkpt lat="43.7058479" lon="12.8842606"><ele>99.16666666666667</ele><time>2026-04-04T09:50:19.692Z</time></trkpt><trkpt lat="43.7058855" lon="12.8843525"><ele>99.33333333333334</ele><time>2026-04-04T09:50:20.692Z</time></trkpt><trkpt lat="43.7059123" lon="12.8844519"><ele>99.5</ele><time>2026-04-04T09:50:21.692Z</time></trkpt><trkpt lat="43.7059325" lon="12.8845546"><ele>99.66666666666667</ele><time>2026-04-04T09:50:22.692Z</time></trkpt><trkpt lat="43.7059302" lon="12.8846682"><ele>99.83333333333334</ele><time>2026-04-04T09:50:23.691Z</time></trkpt><trkpt lat="43.7059157" lon="12.8847937"><ele>100.0</ele><time>2026-04-04T09:50:24.692Z</time></trkpt><trkpt lat="43.7059012" lon="12.884928"><ele>100.0</ele><time>2026-04-04T09:50:25.691Z</time></trkpt><trkpt lat="43.705891" lon="12.8850635"><ele>100.0</ele><time>2026-04-04T09:50:26.693Z</time></trkpt><trkpt lat="43.7058775" lon="12.8852014"><ele>100.0</ele><time>2026-04-04T09:50:27.691Z</time></trkpt><trkpt lat="43.7058564" lon="12.8853342"><ele>100.0</ele><time>2026-04-04T09:50:28.693Z</time></trkpt><trkpt lat="43.7058522" lon="12.8854702"><ele>100.0</ele><time>2026-04-04T09:50:29.692Z</time></trkpt><trkpt lat="43.7058438" lon="12.8856072"><ele>100.2</ele><time>2026-04-04T09:50:30.692Z</time></trkpt><trkpt lat="43.7058295" lon="12.8857452"><ele>100.4</ele><time>2026-04-04T09:50:31.692Z</time></trkpt><trkpt lat="43.7058196" lon="12.8858822"><ele>100.6</ele><time>2026-04-04T09:50:32.691Z</time></trkpt><trkpt lat="43.7058112" lon="12.8860187"><ele>100.8</ele><time>2026-04-04T09:50:33.692Z</time></trkpt><trkpt lat="43.7058047" lon="12.8861562"><ele>101.0</ele><time>2026-04-04T09:50:34.692Z</time></trkpt><trkpt lat="43.7057901" lon="12.886286"><ele>100.66666666666666</ele><time>2026-04-04T09:50:35.691Z</time></trkpt><trkpt lat="43.7057717" lon="12.8864194"><ele>100.33333333333333</ele><time>2026-04-04T09:50:36.693Z</time></trkpt><trkpt lat="43.7057701" lon="12.8865463"><ele>100.0</ele><time>2026-04-04T09:50:37.693Z</time></trkpt><trkpt lat="43.7057826" lon="12.8866655"><ele>99.66666666666666</ele><time>2026-04-04T09:50:38.692Z</time></trkpt><trkpt lat="43.7058126" lon="12.8867748"><ele>99.33333333333333</ele><time>2026-04-04T09:50:39.692Z</time></trkpt><trkpt lat="43.7058592" lon="12.8868775"><ele>99.0</ele><time>2026-04-04T09:50:40.693Z</time></trkpt><trkpt lat="43.7059316" lon="12.8869643"><ele>98.6</ele><time>2026-04-04T09:50:41.693Z</time></trkpt><trkpt lat="43.7060172" lon="12.8870273"><ele>98.2</ele><time>2026-04-04T09:50:42.693Z</time></trkpt><trkpt lat="43.7061091" lon="12.8870768"><ele>97.8</ele><time>2026-04-04T09:50:43.691Z</time></trkpt><trkpt lat="43.7062088" lon="12.8871248"><ele>97.39999999999999</ele><time>2026-04-04T09:50:44.691Z</time></trkpt><trkpt lat="43.7063185" lon="12.8871662"><ele>97.0</ele><time>2026-04-04T09:50:45.692Z</time></trkpt><trkpt lat="43.7064314" lon="12.8872051"><ele>97.0</ele><time>2026-04-04T09:50:46.692Z</time></trkpt><trkpt lat="43.7065442" lon="12.887239"><ele>97.0</ele><time>2026-04-04T09:50:47.692Z</time></trkpt><trkpt lat="43.7066627" lon="12.887276"><ele>97.0</ele><time>2026-04-04T09:50:48.692Z</time></trkpt><trkpt lat="43.7067762" lon="12.8873139"><ele>97.0</ele><time>2026-04-04T09:50:49.692Z</time></trkpt><trkpt lat="43.7068884" lon="12.8873615"><ele>96.5</ele><time>2026-04-04T09:50:50.692Z</time></trkpt><trkpt lat="43.7070115" lon="12.8874022"><ele>96.0</ele><time>2026-04-04T09:50:51.694Z</time></trkpt><trkpt lat="43.7071317" lon="12.8874488"><ele>95.5</ele><time>2026-04-04T09:50:52.691Z</time></trkpt><trkpt lat="43.7072558" lon="12.887492"><ele>95.0</ele><time>2026-04-04T09:50:53.692Z</time></trkpt><trkpt lat="43.7073805" lon="12.8875482"><ele>94.5</ele><time>2026-04-04T09:50:54.693Z</time></trkpt><trkpt lat="43.707502" lon="12.8876031"><ele>94.0</ele><time>2026-04-04T09:50:55.692Z</time></trkpt><trkpt lat="43.7076165" lon="12.8876514"><ele>93.5</ele><time>2026-04-04T09:50:56.692Z</time></trkpt><trkpt lat="43.7077383" lon="12.8877029"><ele>93.0</ele><time>2026-04-04T09:50:57.692Z</time></trkpt><trkpt lat="43.7078667" lon="12.8877446"><ele>92.75</ele><time>2026-04-04T09:50:58.692Z</time></trkpt><trkpt lat="43.7079978" lon="12.8877936"><ele>92.5</ele><time>2026-04-04T09:50:59.691Z</time></trkpt><trkpt lat="43.7081275" lon="12.887817"><ele>92.25</ele><time>2026-04-04T09:51:00.693Z</time></trkpt><trkpt lat="43.7082578" lon="12.8878303"><ele>92.0</ele><time>2026-04-04T09:51:01.692Z</time></trkpt><trkpt lat="43.7083954" lon="12.8878269"><ele>92.0</ele><time>2026-04-04T09:51:02.691Z</time></trkpt><trkpt lat="43.708528" lon="12.8878189"><ele>92.0</ele><time>2026-04-04T09:51:03.693Z</time></trkpt><trkpt lat="43.7086601" lon="12.8877974"><ele>92.0</ele><time>2026-04-04T09:51:04.692Z</time></trkpt><trkpt lat="43.7087884" lon="12.8877762"><ele>92.0</ele><time>2026-04-04T09:51:05.694Z</time></trkpt><trkpt lat="43.7089192" lon="12.887754"><ele>91.75</ele><time>2026-04-04T09:51:06.692Z</time></trkpt><trkpt lat="43.7090475" lon="12.8877281"><ele>91.5</ele><time>2026-04-04T09:51:07.692Z</time></trkpt><trkpt lat="43.7091786" lon="12.8876919"><ele>91.25</ele><time>2026-04-04T09:51:08.692Z</time></trkpt><trkpt lat="43.7093095" lon="12.887656"><ele>91.0</ele><time>2026-04-04T09:51:09.692Z</time></trkpt><trkpt lat="43.7094427" lon="12.8876245"><ele>91.19999999999999</ele><time>2026-04-04T09:51:10.692Z</time></trkpt><trkpt lat="43.7095652" lon="12.887593"><ele>91.39999999999999</ele><time>2026-04-04T09:51:11.691Z</time></trkpt><trkpt lat="43.7096798" lon="12.887565"><ele>91.6</ele><time>2026-04-04T09:51:12.692Z</time></trkpt><trkpt lat="43.7097831" lon="12.8875467"><ele>91.8</ele><time>2026-04-04T09:51:13.692Z</time></trkpt><trkpt lat="43.7098758" lon="12.8875411"><ele>92.0</ele><time>2026-04-04T09:51:14.692Z</time></trkpt><trkpt lat="43.7099521" lon="12.8875726"><ele>91.66666666666667</ele><time>2026-04-04T09:51:15.691Z</time></trkpt><trkpt lat="43.710016" lon="12.8876333"><ele>91.33333333333334</ele><time>2026-04-04T09:51:16.692Z</time></trkpt><trkpt lat="43.710053" lon="12.8877239"><ele>91.0</ele><time>2026-04-04T09:51:17.691Z</time></trkpt><trkpt lat="43.7100706" lon="12.8878299"><ele>90.66666666666667</ele><time>2026-04-04T09:51:18.692Z</time></trkpt><trkpt lat="43.7100957" lon="12.8879313"><ele>90.33333333333333</ele><time>2026-04-04T09:51:19.691Z</time></trkpt><trkpt lat="43.7101427" lon="12.8880284"><ele>90.0</ele><time>2026-04-04T09:51:20.693Z</time></trkpt><trkpt lat="43.7101877" lon="12.8881121"><ele>90.33333333333333</ele><time>2026-04-04T09:51:21.693Z</time></trkpt><trkpt lat="43.7102603" lon="12.8881644"><ele>90.66666666666667</ele><time>2026-04-04T09:51:22.691Z</time></trkpt><trkpt lat="43.7103378" lon="12.888206"><ele>91.0</ele><time>2026-04-04T09:51:23.692Z</time></trkpt><trkpt lat="43.7104174" lon="12.8882324"><ele>91.33333333333334</ele><time>2026-04-04T09:51:24.692Z</time></trkpt><trkpt lat="43.7105023" lon="12.8882471"><ele>91.66666666666667</ele><time>2026-04-04T09:51:25.692Z</time></trkpt><trkpt lat="43.7105774" lon="12.8882692"><ele>92.0</ele><time>2026-04-04T09:51:26.692Z</time></trkpt><trkpt lat="43.7106449" lon="12.8883059"><ele>92.0</ele><time>2026-04-04T09:51:27.692Z</time></trkpt><trkpt lat="43.7107028" lon="12.8883475"><ele>92.0</ele><time>2026-04-04T09:51:28.692Z</time></trkpt><trkpt lat="43.7107609" lon="12.8884902"><ele>92.0</ele><time>2026-04-04T09:51:30.692Z</time></trkpt><trkpt lat="43.7107575" lon="12.8886669"><ele>92.0</ele><time>2026-04-04T09:51:32.691Z</time></trkpt><trkpt lat="43.7107522" lon="12.8887753"><ele>92.0</ele><time>2026-04-04T09:51:33.692Z</time></trkpt><trkpt lat="43.7107406" lon="12.8888892"><ele>91.0</ele><time>2026-04-04T09:51:34.692Z</time></trkpt><trkpt lat="43.7107427" lon="12.8890093"><ele>90.0</ele><time>2026-04-04T09:51:35.691Z</time></trkpt><trkpt lat="43.7107623" lon="12.8891408"><ele>89.0</ele><time>2026-04-04T09:51:36.692Z</time></trkpt><trkpt lat="43.7108094" lon="12.8892695"><ele>88.0</ele><time>2026-04-04T09:51:37.691Z</time></trkpt><trkpt lat="43.7108715" lon="12.8893925"><ele>87.0</ele><time>2026-04-04T09:51:38.692Z</time></trkpt><trkpt lat="43.7109412" lon="12.889528"><ele>86.75</ele><time>2026-04-04T09:51:39.694Z</time></trkpt><trkpt lat="43.7110079" lon="12.8896629"><ele>86.5</ele><time>2026-04-04T09:51:40.692Z</time></trkpt><trkpt lat="43.7110741" lon="12.8897883"><ele>86.25</ele><time>2026-04-04T09:51:41.692Z</time></trkpt><trkpt lat="43.7111373" lon="12.8899185"><ele>86.0</ele><time>2026-04-04T09:51:42.692Z</time></trkpt><trkpt lat="43.7112098" lon="12.8900453"><ele>85.75</ele><time>2026-04-04T09:51:43.691Z</time></trkpt><trkpt lat="43.7112828" lon="12.8901791"><ele>85.5</ele><time>2026-04-04T09:51:44.692Z</time></trkpt><trkpt lat="43.7113585" lon="12.8903137"><ele>85.25</ele><time>2026-04-04T09:51:45.692Z</time></trkpt><trkpt lat="43.7114423" lon="12.8904548"><ele>85.0</ele><time>2026-04-04T09:51:46.691Z</time></trkpt><trkpt lat="43.7115043" lon="12.8906101"><ele>85.0</ele><time>2026-04-04T09:51:47.693Z</time></trkpt><trkpt lat="43.711558" lon="12.8907586"><ele>85.0</ele><time>2026-04-04T09:51:48.692Z</time></trkpt><trkpt lat="43.7115904" lon="12.8909276"><ele>85.0</ele><time>2026-04-04T09:51:49.692Z</time></trkpt><trkpt lat="43.7116108" lon="12.891096"><ele>85.0</ele><time>2026-04-04T09:51:50.693Z</time></trkpt><trkpt lat="43.7116234" lon="12.8912686"><ele>85.8</ele><time>2026-04-04T09:51:51.692Z</time></trkpt><trkpt lat="43.711623" lon="12.8914225"><ele>86.6</ele><time>2026-04-04T09:51:52.692Z</time></trkpt><trkpt lat="43.7116212" lon="12.8915735"><ele>87.4</ele><time>2026-04-04T09:51:53.691Z</time></trkpt><trkpt lat="43.7116216" lon="12.8917167"><ele>88.2</ele><time>2026-04-04T09:51:54.693Z</time></trkpt><trkpt lat="43.7116232" lon="12.8918481"><ele>89.0</ele><time>2026-04-04T09:51:55.693Z</time></trkpt><trkpt lat="43.7116213" lon="12.8919696"><ele>89.0</ele><time>2026-04-04T09:51:56.691Z</time></trkpt><trkpt lat="43.7116244" lon="12.8920802"><ele>89.0</ele><time>2026-04-04T09:51:57.691Z</time></trkpt><trkpt lat="43.7116296" lon="12.8921841"><ele>89.0</ele><time>2026-04-04T09:51:58.691Z</time></trkpt><trkpt lat="43.7116344" lon="12.8922987"><ele>89.0</ele><time>2026-04-04T09:51:59.692Z</time></trkpt><trkpt lat="43.7116353" lon="12.8924231"><ele>89.0</ele><time>2026-04-04T09:52:00.691Z</time></trkpt><trkpt lat="43.7116336" lon="12.8925482"><ele>89.0</ele><time>2026-04-04T09:52:01.693Z</time></trkpt><trkpt lat="43.7116326" lon="12.8926758"><ele>89.0</ele><time>2026-04-04T09:52:02.692Z</time></trkpt><trkpt lat="43.711621" lon="12.8928109"><ele>89.0</ele><time>2026-04-04T09:52:03.691Z</time></trkpt><trkpt lat="43.7116107" lon="12.8929556"><ele>89.0</ele><time>2026-04-04T09:52:04.692Z</time></trkpt><trkpt lat="43.7115996" lon="12.8931103"><ele>89.0</ele><time>2026-04-04T09:52:05.692Z</time></trkpt><trkpt lat="43.7115826" lon="12.8932571"><ele>89.0</ele><time>2026-04-04T09:52:06.692Z</time></trkpt><trkpt lat="43.7115743" lon="12.8934046"><ele>89.25</ele><time>2026-04-04T09:52:07.693Z</time></trkpt><trkpt lat="43.711571" lon="12.8935513"><ele>89.5</ele><time>2026-04-04T09:52:08.692Z</time></trkpt><trkpt lat="43.7115615" lon="12.893717"><ele>89.75</ele><time>2026-04-04T09:52:09.693Z</time></trkpt><trkpt lat="43.7115494" lon="12.8938715"><ele>90.0</ele><time>2026-04-04T09:52:10.691Z</time></trkpt><trkpt lat="43.7115423" lon="12.8940338"><ele>90.0</ele><time>2026-04-04T09:52:11.692Z</time></trkpt><trkpt lat="43.7115316" lon="12.894194"><ele>90.0</ele><time>2026-04-04T09:52:12.691Z</time></trkpt><trkpt lat="43.7115182" lon="12.8943607"><ele>90.0</ele><time>2026-04-04T09:52:13.692Z</time></trkpt><trkpt lat="43.7115088" lon="12.8945246"><ele>90.0</ele><time>2026-04-04T09:52:14.691Z</time></trkpt><trkpt lat="43.7114987" lon="12.8946852"><ele>90.0</ele><time>2026-04-04T09:52:15.692Z</time></trkpt><trkpt lat="43.7114985" lon="12.8948528"><ele>90.0</ele><time>2026-04-04T09:52:16.692Z</time></trkpt><trkpt lat="43.7114911" lon="12.8950147"><ele>90.0</ele><time>2026-04-04T09:52:17.692Z</time></trkpt><trkpt lat="43.7114806" lon="12.8951767"><ele>90.0</ele><time>2026-04-04T09:52:18.692Z</time></trkpt><trkpt lat="43.7114689" lon="12.8953409"><ele>90.0</ele><time>2026-04-04T09:52:19.693Z</time></trkpt><trkpt lat="43.7114576" lon="12.8955062"><ele>90.0</ele><time>2026-04-04T09:52:20.693Z</time></trkpt><trkpt lat="43.7114509" lon="12.8956713"><ele>90.0</ele><time>2026-04-04T09:52:21.693Z</time></trkpt><trkpt lat="43.7114449" lon="12.8958168"><ele>90.0</ele><time>2026-04-04T09:52:22.693Z</time></trkpt><trkpt lat="43.7114393" lon="12.8959508"><ele>90.0</ele><time>2026-04-04T09:52:23.692Z</time></trkpt><trkpt lat="43.7114251" lon="12.8960776"><ele>90.0</ele><time>2026-04-04T09:52:24.693Z</time></trkpt><trkpt lat="43.7114089" lon="12.8961967"><ele>90.0</ele><time>2026-04-04T09:52:25.692Z</time></trkpt><trkpt lat="43.7113787" lon="12.8963027"><ele>90.0</ele><time>2026-04-04T09:52:26.691Z</time></trkpt><trkpt lat="43.7113407" lon="12.8963992"><ele>90.0</ele><time>2026-04-04T09:52:27.693Z</time></trkpt><trkpt lat="43.7113046" lon="12.8964833"><ele>90.0</ele><time>2026-04-04T09:52:28.694Z</time></trkpt><trkpt lat="43.7112694" lon="12.8966041"><ele>90.0</ele><time>2026-04-04T09:52:30.691Z</time></trkpt><trkpt lat="43.7112713" lon="12.8967081"><ele>89.66666666666667</ele><time>2026-04-04T09:52:32.692Z</time></trkpt><trkpt lat="43.7112883" lon="12.8967977"><ele>89.33333333333333</ele><time>2026-04-04T09:52:34.691Z</time></trkpt><trkpt lat="43.7113347" lon="12.8968809"><ele>89.0</ele><time>2026-04-04T09:52:36.692Z</time></trkpt><trkpt lat="43.7114446" lon="12.8969458"><ele>88.66666666666666</ele><time>2026-04-04T09:52:38.692Z</time></trkpt><trkpt lat="43.7115098" lon="12.8969697"><ele>88.33333333333333</ele><time>2026-04-04T09:52:39.692Z</time></trkpt><trkpt lat="43.7115737" lon="12.8969968"><ele>88.0</ele><time>2026-04-04T09:52:40.692Z</time></trkpt><trkpt lat="43.7116456" lon="12.8970262"><ele>88.0</ele><time>2026-04-04T09:52:41.692Z</time></trkpt><trkpt lat="43.7117186" lon="12.8970561"><ele>88.0</ele><time>2026-04-04T09:52:42.693Z</time></trkpt><trkpt lat="43.7118022" lon="12.8970855"><ele>88.0</ele><time>2026-04-04T09:52:43.692Z</time></trkpt><trkpt lat="43.7118916" lon="12.8971236"><ele>88.0</ele><time>2026-04-04T09:52:44.691Z</time></trkpt><trkpt lat="43.7119805" lon="12.8971537"><ele>88.0</ele><time>2026-04-04T09:52:45.693Z</time></trkpt><trkpt lat="43.7120753" lon="12.8971848"><ele>88.0</ele><time>2026-04-04T09:52:46.691Z</time></trkpt><trkpt lat="43.7121719" lon="12.897228"><ele>88.2</ele><time>2026-04-04T09:52:47.693Z</time></trkpt><trkpt lat="43.7122694" lon="12.8972704"><ele>88.4</ele><time>2026-04-04T09:52:48.693Z</time></trkpt><trkpt lat="43.7123625" lon="12.8973155"><ele>88.60000000000001</ele><time>2026-04-04T09:52:49.691Z</time></trkpt><trkpt lat="43.7124633" lon="12.8973593"><ele>88.80000000000001</ele><time>2026-04-04T09:52:50.692Z</time></trkpt><trkpt lat="43.7125675" lon="12.8974101"><ele>89.0</ele><time>2026-04-04T09:52:51.692Z</time></trkpt><trkpt lat="43.7126737" lon="12.8974643"><ele>89.25</ele><time>2026-04-04T09:52:52.691Z</time></trkpt><trkpt lat="43.7127791" lon="12.8975238"><ele>89.5</ele><time>2026-04-04T09:52:53.692Z</time></trkpt><trkpt lat="43.7128884" lon="12.8975746"><ele>89.75</ele><time>2026-04-04T09:52:54.691Z</time></trkpt><trkpt lat="43.7129969" lon="12.8976337"><ele>90.0</ele><time>2026-04-04T09:52:55.691Z</time></trkpt><trkpt lat="43.7131059" lon="12.8976972"><ele>88.25</ele><time>2026-04-04T09:52:56.692Z</time></trkpt><trkpt lat="43.7132196" lon="12.8977551"><ele>86.5</ele><time>2026-04-04T09:52:57.692Z</time></trkpt><trkpt lat="43.7133274" lon="12.8978108"><ele>84.75</ele><time>2026-04-04T09:52:58.691Z</time></trkpt><trkpt lat="43.7134352" lon="12.8978671"><ele>83.0</ele><time>2026-04-04T09:52:59.691Z</time></trkpt><trkpt lat="43.7135501" lon="12.8979344"><ele>84.0</ele><time>2026-04-04T09:53:00.691Z</time></trkpt><trkpt lat="43.7136505" lon="12.8980025"><ele>85.0</ele><time>2026-04-04T09:53:01.692Z</time></trkpt><trkpt lat="43.7137424" lon="12.8980837"><ele>86.0</ele><time>2026-04-04T09:53:02.692Z</time></trkpt><trkpt lat="43.7138349" lon="12.8981655"><ele>87.0</ele><time>2026-04-04T09:53:03.692Z</time></trkpt><trkpt lat="43.7139296" lon="12.8982522"><ele>88.0</ele><time>2026-04-04T09:53:04.692Z</time></trkpt><trkpt lat="43.7140269" lon="12.8983415"><ele>87.5</ele><time>2026-04-04T09:53:05.693Z</time></trkpt><trkpt lat="43.7141264" lon="12.8984268"><ele>87.0</ele><time>2026-04-04T09:53:06.691Z</time></trkpt><trkpt lat="43.7142289" lon="12.8985217"><ele>86.5</ele><time>2026-04-04T09:53:07.692Z</time></trkpt><trkpt lat="43.7143333" lon="12.8986166"><ele>86.0</ele><time>2026-04-04T09:53:08.691Z</time></trkpt><trkpt lat="43.714439" lon="12.8987106"><ele>86.0</ele><time>2026-04-04T09:53:09.692Z</time></trkpt><trkpt lat="43.7145446" lon="12.898806"><ele>86.0</ele><time>2026-04-04T09:53:10.691Z</time></trkpt><trkpt lat="43.7146494" lon="12.8989078"><ele>86.0</ele><time>2026-04-04T09:53:11.693Z</time></trkpt><trkpt lat="43.7147534" lon="12.8990027"><ele>86.0</ele><time>2026-04-04T09:53:12.693Z</time></trkpt><trkpt lat="43.7148574" lon="12.899094"><ele>86.0</ele><time>2026-04-04T09:53:13.691Z</time></trkpt><trkpt lat="43.7149689" lon="12.899175"><ele>86.0</ele><time>2026-04-04T09:53:14.693Z</time></trkpt><trkpt lat="43.7150815" lon="12.8992351"><ele>86.0</ele><time>2026-04-04T09:53:15.691Z</time></trkpt><trkpt lat="43.7151954" lon="12.8992814"><ele>86.0</ele><time>2026-04-04T09:53:16.691Z</time></trkpt><trkpt lat="43.7153086" lon="12.8992918"><ele>85.5</ele><time>2026-04-04T09:53:17.692Z</time></trkpt><trkpt lat="43.7154239" lon="12.8992734"><ele>85.0</ele><time>2026-04-04T09:53:18.691Z</time></trkpt><trkpt lat="43.7155422" lon="12.8992479"><ele>84.5</ele><time>2026-04-04T09:53:19.691Z</time></trkpt><trkpt lat="43.7156587" lon="12.8992381"><ele>84.0</ele><time>2026-04-04T09:53:20.692Z</time></trkpt><trkpt lat="43.715778" lon="12.8992552"><ele>82.0</ele><time>2026-04-04T09:53:21.691Z</time></trkpt><trkpt lat="43.7158911" lon="12.8992955"><ele>80.0</ele><time>2026-04-04T09:53:22.692Z</time></trkpt><trkpt lat="43.7160148" lon="12.8993541"><ele>78.0</ele><time>2026-04-04T09:53:23.693Z</time></trkpt><trkpt lat="43.7161304" lon="12.8994289"><ele>76.0</ele><time>2026-04-04T09:53:24.692Z</time></trkpt><trkpt lat="43.7162515" lon="12.8995087"><ele>75.25</ele><time>2026-04-04T09:53:25.691Z</time></trkpt><trkpt lat="43.7163824" lon="12.8995959"><ele>74.5</ele><time>2026-04-04T09:53:26.692Z</time></trkpt><trkpt lat="43.7164975" lon="12.8996842"><ele>73.75</ele><time>2026-04-04T09:53:27.692Z</time></trkpt><trkpt lat="43.7166097" lon="12.8997641"><ele>73.0</ele><time>2026-04-04T09:53:28.692Z</time></trkpt><trkpt lat="43.7167044" lon="12.8998359"><ele>73.0</ele><time>2026-04-04T09:53:29.692Z</time></trkpt><trkpt lat="43.7167927" lon="12.8999037"><ele>73.0</ele><time>2026-04-04T09:53:30.692Z</time></trkpt><trkpt lat="43.7168401" lon="12.8999996"><ele>73.0</ele><time>2026-04-04T09:53:31.692Z</time></trkpt><trkpt lat="43.7168803" lon="12.9000933"><ele>73.0</ele><time>2026-04-04T09:53:32.693Z</time></trkpt><trkpt lat="43.7168852" lon="12.9002016"><ele>73.0</ele><time>2026-04-04T09:53:33.692Z</time></trkpt><trkpt lat="43.7168566" lon="12.9003153"><ele>73.0</ele><time>2026-04-04T09:53:34.691Z</time></trkpt><trkpt lat="43.7168019" lon="12.9004354"><ele>73.0</ele><time>2026-04-04T09:53:35.693Z</time></trkpt><trkpt lat="43.7167315" lon="12.900545"><ele>73.0</ele><time>2026-04-04T09:53:36.692Z</time></trkpt><trkpt lat="43.7166567" lon="12.900654"><ele>73.0</ele><time>2026-04-04T09:53:37.691Z</time></trkpt><trkpt lat="43.7165779" lon="12.9007604"><ele>73.0</ele><time>2026-04-04T09:53:38.692Z</time></trkpt><trkpt lat="43.7165002" lon="12.9008422"><ele>73.0</ele><time>2026-04-04T09:53:39.693Z</time></trkpt><trkpt lat="43.7164413" lon="12.9009349"><ele>74.83333333333333</ele><time>2026-04-04T09:53:40.692Z</time></trkpt><trkpt lat="43.7163923" lon="12.9010202"><ele>76.66666666666666</ele><time>2026-04-04T09:53:41.691Z</time></trkpt><trkpt lat="43.7163654" lon="12.9011032"><ele>78.5</ele><time>2026-04-04T09:53:42.692Z</time></trkpt><trkpt lat="43.7163938" lon="12.9012577"><ele>80.33333333333333</ele><time>2026-04-04T09:53:44.692Z</time></trkpt><trkpt lat="43.7164526" lon="12.9013093"><ele>82.16666666666667</ele><time>2026-04-04T09:53:45.692Z</time></trkpt><trkpt lat="43.7165314" lon="12.9013456"><ele>84.0</ele><time>2026-04-04T09:53:46.692Z</time></trkpt><trkpt lat="43.7166158" lon="12.9013701"><ele>84.0</ele><time>2026-04-04T09:53:47.691Z</time></trkpt><trkpt lat="43.7167057" lon="12.9014101"><ele>84.0</ele><time>2026-04-04T09:53:48.692Z</time></trkpt><trkpt lat="43.7167917" lon="12.9014513"><ele>84.0</ele><time>2026-04-04T09:53:49.692Z</time></trkpt><trkpt lat="43.7168852" lon="12.9015008"><ele>84.0</ele><time>2026-04-04T09:53:50.692Z</time></trkpt><trkpt lat="43.7169803" lon="12.9015492"><ele>84.0</ele><time>2026-04-04T09:53:51.691Z</time></trkpt><trkpt lat="43.7170818" lon="12.9015976"><ele>83.6</ele><time>2026-04-04T09:53:52.693Z</time></trkpt><trkpt lat="43.717183" lon="12.9016535"><ele>83.2</ele><time>2026-04-04T09:53:53.692Z</time></trkpt><trkpt lat="43.7172719" lon="12.9017158"><ele>82.8</ele><time>2026-04-04T09:53:54.693Z</time></trkpt><trkpt lat="43.7173553" lon="12.9017846"><ele>82.39999999999999</ele><time>2026-04-04T09:53:55.692Z</time></trkpt><trkpt lat="43.7174459" lon="12.9018647"><ele>82.0</ele><time>2026-04-04T09:53:56.691Z</time></trkpt><trkpt lat="43.717528" lon="12.901955"><ele>81.8</ele><time>2026-04-04T09:53:57.691Z</time></trkpt><trkpt lat="43.7176093" lon="12.902043"><ele>81.6</ele><time>2026-04-04T09:53:58.691Z</time></trkpt><trkpt lat="43.7176866" lon="12.9021338"><ele>81.39999999999999</ele><time>2026-04-04T09:53:59.692Z</time></trkpt><trkpt lat="43.7177606" lon="12.9022246"><ele>81.19999999999999</ele><time>2026-04-04T09:54:00.691Z</time></trkpt><trkpt lat="43.7178369" lon="12.9023101"><ele>81.0</ele><time>2026-04-04T09:54:01.691Z</time></trkpt><trkpt lat="43.7178944" lon="12.9024187"><ele>81.0</ele><time>2026-04-04T09:54:02.694Z</time></trkpt><trkpt lat="43.7179353" lon="12.902537"><ele>81.0</ele><time>2026-04-04T09:54:03.693Z</time></trkpt><trkpt lat="43.7179532" lon="12.9026542"><ele>81.0</ele><time>2026-04-04T09:54:04.692Z</time></trkpt><trkpt lat="43.7179443" lon="12.9027693"><ele>81.0</ele><time>2026-04-04T09:54:05.691Z</time></trkpt><trkpt lat="43.7179113" lon="12.902885"><ele>81.0</ele><time>2026-04-04T09:54:06.691Z</time></trkpt><trkpt lat="43.7178621" lon="12.9029801"><ele>81.0</ele><time>2026-04-04T09:54:07.692Z</time></trkpt><trkpt lat="43.7177932" lon="12.9030647"><ele>82.4</ele><time>2026-04-04T09:54:08.692Z</time></trkpt><trkpt lat="43.7177215" lon="12.9031554"><ele>83.8</ele><time>2026-04-04T09:54:09.691Z</time></trkpt><trkpt lat="43.7176491" lon="12.9032525"><ele>85.2</ele><time>2026-04-04T09:54:10.691Z</time></trkpt><trkpt lat="43.7175696" lon="12.9033467"><ele>86.60000000000001</ele><time>2026-04-04T09:54:11.691Z</time></trkpt><trkpt lat="43.717493" lon="12.9034378"><ele>88.0</ele><time>2026-04-04T09:54:12.692Z</time></trkpt><trkpt lat="43.7174243" lon="12.9035159"><ele>88.14285714285714</ele><time>2026-04-04T09:54:13.693Z</time></trkpt><trkpt lat="43.7173683" lon="12.9035935"><ele>88.28571428571428</ele><time>2026-04-04T09:54:14.691Z</time></trkpt><trkpt lat="43.7173211" lon="12.90367"><ele>88.42857142857142</ele><time>2026-04-04T09:54:15.692Z</time></trkpt><trkpt lat="43.7173014" lon="12.9037594"><ele>88.57142857142857</ele><time>2026-04-04T09:54:16.691Z</time></trkpt><trkpt lat="43.7173059" lon="12.9038483"><ele>88.71428571428571</ele><time>2026-04-04T09:54:17.692Z</time></trkpt><trkpt lat="43.717332" lon="12.903934"><ele>88.85714285714285</ele><time>2026-04-04T09:54:18.691Z</time></trkpt><trkpt lat="43.7173782" lon="12.9040194"><ele>89.0</ele><time>2026-04-04T09:54:19.692Z</time></trkpt><trkpt lat="43.717441" lon="12.904125"><ele>89.0</ele><time>2026-04-04T09:54:20.692Z</time></trkpt><trkpt lat="43.7175033" lon="12.9042317"><ele>89.0</ele><time>2026-04-04T09:54:21.692Z</time></trkpt><trkpt lat="43.7175651" lon="12.9043388"><ele>89.0</ele><time>2026-04-04T09:54:22.693Z</time></trkpt><trkpt lat="43.717631" lon="12.9044467"><ele>89.0</ele><time>2026-04-04T09:54:23.692Z</time></trkpt><trkpt lat="43.7176981" lon="12.9045595"><ele>89.0</ele><time>2026-04-04T09:54:24.692Z</time></trkpt><trkpt lat="43.7177737" lon="12.9046654"><ele>88.80000000000001</ele><time>2026-04-04T09:54:25.692Z</time></trkpt><trkpt lat="43.7178426" lon="12.9047695"><ele>88.60000000000001</ele><time>2026-04-04T09:54:26.692Z</time></trkpt><trkpt lat="43.7179105" lon="12.9048782"><ele>88.4</ele><time>2026-04-04T09:54:27.692Z</time></trkpt><trkpt lat="43.7179773" lon="12.904979"><ele>88.2</ele><time>2026-04-04T09:54:28.692Z</time></trkpt><trkpt lat="43.718046" lon="12.9050741"><ele>88.0</ele><time>2026-04-04T09:54:29.692Z</time></trkpt><trkpt lat="43.7181148" lon="12.9051566"><ele>88.0</ele><time>2026-04-04T09:54:30.692Z</time></trkpt><trkpt lat="43.718189" lon="12.9052327"><ele>88.0</ele><time>2026-04-04T09:54:31.692Z</time></trkpt><trkpt lat="43.7182618" lon="12.9053201"><ele>88.0</ele><time>2026-04-04T09:54:32.691Z</time></trkpt><trkpt lat="43.7183361" lon="12.9053923"><ele>88.0</ele><time>2026-04-04T09:54:33.692Z</time></trkpt><trkpt lat="43.7184111" lon="12.9054606"><ele>88.0</ele><time>2026-04-04T09:54:34.692Z</time></trkpt><trkpt lat="43.7184913" lon="12.9055316"><ele>87.4</ele><time>2026-04-04T09:54:35.691Z</time></trkpt><trkpt lat="43.7185799" lon="12.9055978"><ele>86.80000000000001</ele><time>2026-04-04T09:54:36.692Z</time></trkpt><trkpt lat="43.7186684" lon="12.9056623"><ele>86.2</ele><time>2026-04-04T09:54:37.693Z</time></trkpt><trkpt lat="43.7187645" lon="12.9057253"><ele>85.6</ele><time>2026-04-04T09:54:38.692Z</time></trkpt><trkpt lat="43.7188627" lon="12.9057847"><ele>85.0</ele><time>2026-04-04T09:54:39.692Z</time></trkpt><trkpt lat="43.7189668" lon="12.9058346"><ele>85.0</ele><time>2026-04-04T09:54:40.693Z</time></trkpt><trkpt lat="43.7190671" lon="12.905897"><ele>85.0</ele><time>2026-04-04T09:54:41.691Z</time></trkpt><trkpt lat="43.7191731" lon="12.9059534"><ele>85.0</ele><time>2026-04-04T09:54:42.692Z</time></trkpt><trkpt lat="43.7192806" lon="12.9060159"><ele>85.0</ele><time>2026-04-04T09:54:43.692Z</time></trkpt><trkpt lat="43.7193917" lon="12.9060763"><ele>84.5</ele><time>2026-04-04T09:54:44.692Z</time></trkpt><trkpt lat="43.7195164" lon="12.9061392"><ele>84.0</ele><time>2026-04-04T09:54:45.692Z</time></trkpt><trkpt lat="43.7196306" lon="12.9062009"><ele>83.5</ele><time>2026-04-04T09:54:46.692Z</time></trkpt><trkpt lat="43.7197498" lon="12.9062586"><ele>83.0</ele><time>2026-04-04T09:54:47.692Z</time></trkpt><trkpt lat="43.71987" lon="12.9063197"><ele>83.0</ele><time>2026-04-04T09:54:48.691Z</time></trkpt><trkpt lat="43.719991" lon="12.906388"><ele>83.0</ele><time>2026-04-04T09:54:49.691Z</time></trkpt><trkpt lat="43.7201069" lon="12.9064516"><ele>83.0</ele><time>2026-04-04T09:54:50.692Z</time></trkpt><trkpt lat="43.7202187" lon="12.9065257"><ele>83.0</ele><time>2026-04-04T09:54:51.691Z</time></trkpt><trkpt lat="43.7203313" lon="12.9066076"><ele>83.5</ele><time>2026-04-04T09:54:52.692Z</time></trkpt><trkpt lat="43.7204455" lon="12.9066982"><ele>84.0</ele><time>2026-04-04T09:54:53.693Z</time></trkpt><trkpt lat="43.7205538" lon="12.9068048"><ele>84.5</ele><time>2026-04-04T09:54:54.691Z</time></trkpt><trkpt lat="43.7206593" lon="12.9069176"><ele>85.0</ele><time>2026-04-04T09:54:55.691Z</time></trkpt><trkpt lat="43.7207642" lon="12.9070425"><ele>84.0</ele><time>2026-04-04T09:54:56.691Z</time></trkpt><trkpt lat="43.7208723" lon="12.9071607"><ele>83.0</ele><time>2026-04-04T09:54:57.692Z</time></trkpt><trkpt lat="43.7209881" lon="12.907268"><ele>82.0</ele><time>2026-04-04T09:54:58.692Z</time></trkpt><trkpt lat="43.7210991" lon="12.9073769"><ele>81.0</ele><time>2026-04-04T09:54:59.692Z</time></trkpt><trkpt lat="43.7212056" lon="12.9074999"><ele>80.5</ele><time>2026-04-04T09:55:00.693Z</time></trkpt><trkpt lat="43.7212992" lon="12.9076357"><ele>80.0</ele><time>2026-04-04T09:55:01.691Z</time></trkpt><trkpt lat="43.7213827" lon="12.9077659"><ele>79.5</ele><time>2026-04-04T09:55:02.692Z</time></trkpt><trkpt lat="43.7214519" lon="12.9079057"><ele>79.0</ele><time>2026-04-04T09:55:03.692Z</time></trkpt><trkpt lat="43.7215061" lon="12.9080584"><ele>79.0</ele><time>2026-04-04T09:55:04.691Z</time></trkpt><trkpt lat="43.7215441" lon="12.9082168"><ele>79.0</ele><time>2026-04-04T09:55:05.691Z</time></trkpt><trkpt lat="43.7215569" lon="12.9083782"><ele>79.0</ele><time>2026-04-04T09:55:06.692Z</time></trkpt><trkpt lat="43.7215328" lon="12.9085399"><ele>79.0</ele><time>2026-04-04T09:55:07.691Z</time></trkpt><trkpt lat="43.7214834" lon="12.9086915"><ele>78.5</ele><time>2026-04-04T09:55:08.692Z</time></trkpt><trkpt lat="43.7214122" lon="12.9088336"><ele>78.0</ele><time>2026-04-04T09:55:09.692Z</time></trkpt><trkpt lat="43.7213266" lon="12.9089655"><ele>77.5</ele><time>2026-04-04T09:55:10.693Z</time></trkpt><trkpt lat="43.7212307" lon="12.909099"><ele>77.0</ele><time>2026-04-04T09:55:11.693Z</time></trkpt><trkpt lat="43.7211369" lon="12.9092354"><ele>78.0</ele><time>2026-04-04T09:55:12.691Z</time></trkpt><trkpt lat="43.7210516" lon="12.9093739"><ele>79.0</ele><time>2026-04-04T09:55:13.692Z</time></trkpt><trkpt lat="43.7209547" lon="12.909514"><ele>80.0</ele><time>2026-04-04T09:55:14.692Z</time></trkpt><trkpt lat="43.7208684" lon="12.9096682"><ele>81.0</ele><time>2026-04-04T09:55:15.692Z</time></trkpt><trkpt lat="43.720787" lon="12.909822"><ele>81.0</ele><time>2026-04-04T09:55:16.692Z</time></trkpt><trkpt lat="43.7207118" lon="12.909979"><ele>81.0</ele><time>2026-04-04T09:55:17.693Z</time></trkpt><trkpt lat="43.7206467" lon="12.9101509"><ele>81.0</ele><time>2026-04-04T09:55:18.692Z</time></trkpt><trkpt lat="43.7205914" lon="12.9103301"><ele>81.0</ele><time>2026-04-04T09:55:19.691Z</time></trkpt><trkpt lat="43.7205434" lon="12.9105057"><ele>81.5</ele><time>2026-04-04T09:55:20.692Z</time></trkpt><trkpt lat="43.7205011" lon="12.9106789"><ele>82.0</ele><time>2026-04-04T09:55:21.691Z</time></trkpt><trkpt lat="43.7204579" lon="12.9108473"><ele>82.5</ele><time>2026-04-04T09:55:22.692Z</time></trkpt><trkpt lat="43.72042" lon="12.9110217"><ele>83.0</ele><time>2026-04-04T09:55:23.691Z</time></trkpt><trkpt lat="43.7203763" lon="12.9111879"><ele>83.0</ele><time>2026-04-04T09:55:24.692Z</time></trkpt><trkpt lat="43.7203346" lon="12.9113464"><ele>83.0</ele><time>2026-04-04T09:55:25.692Z</time></trkpt><trkpt lat="43.7202847" lon="12.9115099"><ele>83.0</ele><time>2026-04-04T09:55:26.692Z</time></trkpt><trkpt lat="43.7202364" lon="12.9116707"><ele>83.0</ele><time>2026-04-04T09:55:27.691Z</time></trkpt><trkpt lat="43.720194" lon="12.911819"><ele>83.0</ele><time>2026-04-04T09:55:28.691Z</time></trkpt><trkpt lat="43.7201533" lon="12.9119492"><ele>83.0</ele><time>2026-04-04T09:55:29.692Z</time></trkpt><trkpt lat="43.7201089" lon="12.9120752"><ele>83.0</ele><time>2026-04-04T09:55:30.692Z</time></trkpt><trkpt lat="43.720071" lon="12.9121945"><ele>83.0</ele><time>2026-04-04T09:55:31.692Z</time></trkpt><trkpt lat="43.7200317" lon="12.9123237"><ele>83.0</ele><time>2026-04-04T09:55:32.692Z</time></trkpt><trkpt lat="43.7199999" lon="12.9124611"><ele>82.60000000000001</ele><time>2026-04-04T09:55:33.691Z</time></trkpt><trkpt lat="43.7199811" lon="12.9126"><ele>82.2</ele><time>2026-04-04T09:55:34.693Z</time></trkpt><trkpt lat="43.7199824" lon="12.91275"><ele>81.8</ele><time>2026-04-04T09:55:35.691Z</time></trkpt><trkpt lat="43.7200052" lon="12.9128919"><ele>81.4</ele><time>2026-04-04T09:55:36.691Z</time></trkpt><trkpt lat="43.7200516" lon="12.9130392"><ele>81.0</ele><time>2026-04-04T09:55:37.693Z</time></trkpt><trkpt lat="43.7201172" lon="12.9131715"><ele>81.0</ele><time>2026-04-04T09:55:38.692Z</time></trkpt><trkpt lat="43.7202092" lon="12.9132964"><ele>81.0</ele><time>2026-04-04T09:55:39.692Z</time></trkpt><trkpt lat="43.7203146" lon="12.9134127"><ele>81.0</ele><time>2026-04-04T09:55:40.691Z</time></trkpt><trkpt lat="43.7204281" lon="12.9135249"><ele>81.0</ele><time>2026-04-04T09:55:41.691Z</time></trkpt><trkpt lat="43.7205386" lon="12.9136432"><ele>76.5</ele><time>2026-04-04T09:55:42.693Z</time></trkpt><trkpt lat="43.7206529" lon="12.9137506"><ele>72.0</ele><time>2026-04-04T09:55:43.691Z</time></trkpt><trkpt lat="43.7207696" lon="12.913865"><ele>67.5</ele><time>2026-04-04T09:55:44.691Z</time></trkpt><trkpt lat="43.7208837" lon="12.9139794"><ele>63.0</ele><time>2026-04-04T09:55:45.692Z</time></trkpt><trkpt lat="43.7209891" lon="12.9140858"><ele>64.75</ele><time>2026-04-04T09:55:46.692Z</time></trkpt><trkpt lat="43.7210959" lon="12.9141938"><ele>66.5</ele><time>2026-04-04T09:55:47.692Z</time></trkpt><trkpt lat="43.7212037" lon="12.9143073"><ele>68.25</ele><time>2026-04-04T09:55:48.692Z</time></trkpt><trkpt lat="43.7213118" lon="12.9144201"><ele>70.0</ele><time>2026-04-04T09:55:49.692Z</time></trkpt><trkpt lat="43.7214202" lon="12.914527"><ele>71.0</ele><time>2026-04-04T09:55:50.692Z</time></trkpt><trkpt lat="43.7215356" lon="12.9146289"><ele>72.0</ele><time>2026-04-04T09:55:51.692Z</time></trkpt><trkpt lat="43.7216437" lon="12.9147377"><ele>73.0</ele><time>2026-04-04T09:55:52.691Z</time></trkpt><trkpt lat="43.721755" lon="12.9148456"><ele>74.0</ele><time>2026-04-04T09:55:53.693Z</time></trkpt><trkpt lat="43.7218726" lon="12.9149575"><ele>76.0</ele><time>2026-04-04T09:55:54.691Z</time></trkpt><trkpt lat="43.7219911" lon="12.9150802"><ele>78.0</ele><time>2026-04-04T09:55:55.693Z</time></trkpt><trkpt lat="43.7221074" lon="12.915198"><ele>80.0</ele><time>2026-04-04T09:55:56.691Z</time></trkpt><trkpt lat="43.7222292" lon="12.9153207"><ele>82.0</ele><time>2026-04-04T09:55:57.693Z</time></trkpt><trkpt lat="43.7223479" lon="12.9154489"><ele>82.0</ele><time>2026-04-04T09:55:58.691Z</time></trkpt><trkpt lat="43.7224739" lon="12.9155865"><ele>82.0</ele><time>2026-04-04T09:55:59.691Z</time></trkpt><trkpt lat="43.7225943" lon="12.9157181"><ele>82.0</ele><time>2026-04-04T09:56:00.692Z</time></trkpt><trkpt lat="43.7227184" lon="12.91584"><ele>81.5</ele><time>2026-04-04T09:56:01.692Z</time></trkpt><trkpt lat="43.7228372" lon="12.915962"><ele>81.0</ele><time>2026-04-04T09:56:02.691Z</time></trkpt><trkpt lat="43.722944" lon="12.916068"><ele>80.5</ele><time>2026-04-04T09:56:03.694Z</time></trkpt><trkpt lat="43.7230389" lon="12.9161631"><ele>80.0</ele><time>2026-04-04T09:56:04.692Z</time></trkpt><trkpt lat="43.7231193" lon="12.9162566"><ele>80.0</ele><time>2026-04-04T09:56:05.693Z</time></trkpt><trkpt lat="43.7231767" lon="12.9163671"><ele>80.0</ele><time>2026-04-04T09:56:06.691Z</time></trkpt><trkpt lat="43.7232092" lon="12.9164894"><ele>80.0</ele><time>2026-04-04T09:56:07.692Z</time></trkpt><trkpt lat="43.7232146" lon="12.9166192"><ele>80.0</ele><time>2026-04-04T09:56:08.692Z</time></trkpt><trkpt lat="43.7231875" lon="12.9167403"><ele>80.0</ele><time>2026-04-04T09:56:09.692Z</time></trkpt><trkpt lat="43.7231429" lon="12.9168466"><ele>80.83333333333334</ele><time>2026-04-04T09:56:10.692Z</time></trkpt><trkpt lat="43.7230944" lon="12.9169262"><ele>81.66666666666667</ele><time>2026-04-04T09:56:11.691Z</time></trkpt><trkpt lat="43.7230536" lon="12.9169969"><ele>82.5</ele><time>2026-04-04T09:56:12.691Z</time></trkpt><trkpt lat="43.7230089" lon="12.9170753"><ele>83.33333333333333</ele><time>2026-04-04T09:56:14.693Z</time></trkpt><trkpt lat="43.7230277" lon="12.9172259"><ele>84.16666666666666</ele><time>2026-04-04T09:56:26.691Z</time></trkpt><trkpt lat="43.7230708" lon="12.9172941"><ele>85.0</ele><time>2026-04-04T09:56:27.691Z</time></trkpt><trkpt lat="43.7231294" lon="12.9173628"><ele>85.0</ele><time>2026-04-04T09:56:28.692Z</time></trkpt><trkpt lat="43.7231971" lon="12.9174447"><ele>85.0</ele><time>2026-04-04T09:56:29.692Z</time></trkpt><trkpt lat="43.7232707" lon="12.9175373"><ele>85.0</ele><time>2026-04-04T09:56:30.692Z</time></trkpt><trkpt lat="43.7233544" lon="12.9176257"><ele>85.0</ele><time>2026-04-04T09:56:31.692Z</time></trkpt><trkpt lat="43.7234384" lon="12.9177259"><ele>85.0</ele><time>2026-04-04T09:56:32.692Z</time></trkpt><trkpt lat="43.7235271" lon="12.9178248"><ele>84.75</ele><time>2026-04-04T09:56:33.691Z</time></trkpt><trkpt lat="43.7236151" lon="12.9179336"><ele>84.5</ele><time>2026-04-04T09:56:34.692Z</time></trkpt><trkpt lat="43.7237147" lon="12.9180481"><ele>84.25</ele><time>2026-04-04T09:56:35.692Z</time></trkpt><trkpt lat="43.7238132" lon="12.9181733"><ele>84.0</ele><time>2026-04-04T09:56:36.692Z</time></trkpt><trkpt lat="43.7239186" lon="12.9182966"><ele>88.5</ele><time>2026-04-04T09:56:37.691Z</time></trkpt><trkpt lat="43.7240249" lon="12.918411"><ele>93.0</ele><time>2026-04-04T09:56:38.692Z</time></trkpt><trkpt lat="43.7241333" lon="12.9185417"><ele>97.5</ele><time>2026-04-04T09:56:39.691Z</time></trkpt><trkpt lat="43.7242416" lon="12.9186645"><ele>102.0</ele><time>2026-04-04T09:56:40.692Z</time></trkpt><trkpt lat="43.724352" lon="12.9187807"><ele>98.25</ele><time>2026-04-04T09:56:41.691Z</time></trkpt><trkpt lat="43.7244661" lon="12.9188859"><ele>94.5</ele><time>2026-04-04T09:56:42.691Z</time></trkpt><trkpt lat="43.7245869" lon="12.918993"><ele>90.75</ele><time>2026-04-04T09:56:43.691Z</time></trkpt><trkpt lat="43.7247057" lon="12.9190967"><ele>87.0</ele><time>2026-04-04T09:56:44.691Z</time></trkpt><trkpt lat="43.7248301" lon="12.9191927"><ele>87.5</ele><time>2026-04-04T09:56:45.692Z</time></trkpt><trkpt lat="43.7249548" lon="12.919284"><ele>88.0</ele><time>2026-04-04T09:56:46.691Z</time></trkpt><trkpt lat="43.7250765" lon="12.9193825"><ele>88.5</ele><time>2026-04-04T09:56:47.691Z</time></trkpt><trkpt lat="43.7252033" lon="12.9194895"><ele>89.0</ele><time>2026-04-04T09:56:48.691Z</time></trkpt><trkpt lat="43.7253291" lon="12.9195904"><ele>89.0</ele><time>2026-04-04T09:56:49.692Z</time></trkpt><trkpt lat="43.7254548" lon="12.9196838"><ele>89.0</ele><time>2026-04-04T09:56:50.692Z</time></trkpt><trkpt lat="43.7255853" lon="12.9197808"><ele>89.0</ele><time>2026-04-04T09:56:51.692Z</time></trkpt><trkpt lat="43.7257189" lon="12.9198891"><ele>89.0</ele><time>2026-04-04T09:56:52.691Z</time></trkpt><trkpt lat="43.7258509" lon="12.9199968"><ele>89.33333333333334</ele><time>2026-04-04T09:56:53.691Z</time></trkpt><trkpt lat="43.7259842" lon="12.9200993"><ele>89.66666666666667</ele><time>2026-04-04T09:56:54.691Z</time></trkpt><trkpt lat="43.7261129" lon="12.9202086"><ele>90.0</ele><time>2026-04-04T09:56:55.692Z</time></trkpt><trkpt lat="43.7262489" lon="12.9203189"><ele>90.0</ele><time>2026-04-04T09:56:56.693Z</time></trkpt><trkpt lat="43.7263856" lon="12.9204252"><ele>90.0</ele><time>2026-04-04T09:56:57.691Z</time></trkpt><trkpt lat="43.726513" lon="12.9205266"><ele>90.0</ele><time>2026-04-04T09:56:58.691Z</time></trkpt><trkpt lat="43.7266422" lon="12.9206262"><ele>90.0</ele><time>2026-04-04T09:56:59.693Z</time></trkpt><trkpt lat="43.7267695" lon="12.9207229"><ele>90.0</ele><time>2026-04-04T09:57:00.691Z</time></trkpt><trkpt lat="43.7269019" lon="12.9208134"><ele>90.0</ele><time>2026-04-04T09:57:01.691Z</time></trkpt><trkpt lat="43.7270442" lon="12.9208799"><ele>90.0</ele><time>2026-04-04T09:57:02.691Z</time></trkpt><trkpt lat="43.7271892" lon="12.9209391"><ele>88.66666666666667</ele><time>2026-04-04T09:57:03.692Z</time></trkpt><trkpt lat="43.7273339" lon="12.9209883"><ele>87.33333333333334</ele><time>2026-04-04T09:57:04.692Z</time></trkpt><trkpt lat="43.7274844" lon="12.9210264"><ele>86.0</ele><time>2026-04-04T09:57:05.692Z</time></trkpt><trkpt lat="43.7276345" lon="12.9210558"><ele>86.0</ele><time>2026-04-04T09:57:06.694Z</time></trkpt><trkpt lat="43.7277847" lon="12.9210788"><ele>86.0</ele><time>2026-04-04T09:57:07.691Z</time></trkpt><trkpt lat="43.7279286" lon="12.9211016"><ele>86.0</ele><time>2026-04-04T09:57:08.693Z</time></trkpt><trkpt lat="43.7280762" lon="12.921134"><ele>86.0</ele><time>2026-04-04T09:57:09.691Z</time></trkpt><trkpt lat="43.7282221" lon="12.9211652"><ele>86.0</ele><time>2026-04-04T09:57:10.691Z</time></trkpt><trkpt lat="43.7283687" lon="12.9212016"><ele>86.0</ele><time>2026-04-04T09:57:11.692Z</time></trkpt><trkpt lat="43.728519" lon="12.9212558"><ele>86.0</ele><time>2026-04-04T09:57:12.691Z</time></trkpt><trkpt lat="43.7286645" lon="12.9213138"><ele>86.0</ele><time>2026-04-04T09:57:13.691Z</time></trkpt><trkpt lat="43.7288031" lon="12.9213782"><ele>86.0</ele><time>2026-04-04T09:57:14.691Z</time></trkpt><trkpt lat="43.7289387" lon="12.9214331"><ele>86.0</ele><time>2026-04-04T09:57:15.693Z</time></trkpt><trkpt lat="43.7290657" lon="12.9214969"><ele>86.0</ele><time>2026-04-04T09:57:16.692Z</time></trkpt><trkpt lat="43.7291904" lon="12.9215536"><ele>86.0</ele><time>2026-04-04T09:57:17.691Z</time></trkpt><trkpt lat="43.729312" lon="12.9216111"><ele>86.0</ele><time>2026-04-04T09:57:18.692Z</time></trkpt><trkpt lat="43.7294329" lon="12.9216672"><ele>86.0</ele><time>2026-04-04T09:57:19.691Z</time></trkpt><trkpt lat="43.729549" lon="12.9217222"><ele>86.0</ele><time>2026-04-04T09:57:20.691Z</time></trkpt><trkpt lat="43.7296631" lon="12.921775"><ele>85.6</ele><time>2026-04-04T09:57:21.692Z</time></trkpt><trkpt lat="43.7297712" lon="12.9218284"><ele>85.19999999999999</ele><time>2026-04-04T09:57:22.692Z</time></trkpt><trkpt lat="43.7298807" lon="12.9218836"><ele>84.80000000000001</ele><time>2026-04-04T09:57:23.692Z</time></trkpt><trkpt lat="43.7299809" lon="12.9219279"><ele>84.4</ele><time>2026-04-04T09:57:24.691Z</time></trkpt><trkpt lat="43.7300871" lon="12.9219678"><ele>84.0</ele><time>2026-04-04T09:57:25.691Z</time></trkpt><trkpt lat="43.730187" lon="12.9220105"><ele>83.33333333333333</ele><time>2026-04-04T09:57:26.692Z</time></trkpt><trkpt lat="43.7302855" lon="12.9220549"><ele>82.66666666666667</ele><time>2026-04-04T09:57:27.692Z</time></trkpt><trkpt lat="43.7303751" lon="12.9221065"><ele>82.0</ele><time>2026-04-04T09:57:28.691Z</time></trkpt><trkpt lat="43.7304588" lon="12.9221705"><ele>81.33333333333334</ele><time>2026-04-04T09:57:29.692Z</time></trkpt><trkpt lat="43.730526" lon="12.9222324"><ele>80.66666666666667</ele><time>2026-04-04T09:57:30.692Z</time></trkpt><trkpt lat="43.7305818" lon="12.922283"><ele>80.0</ele><time>2026-04-04T09:57:31.691Z</time></trkpt><trkpt lat="43.7306611" lon="12.9223385"><ele>80.0</ele><time>2026-04-04T09:57:33.693Z</time></trkpt><trkpt lat="43.7307204" lon="12.9222669"><ele>80.0</ele><time>2026-04-04T09:57:36.691Z</time></trkpt><trkpt lat="43.7307125" lon="12.9221211"><ele>80.0</ele><time>2026-04-04T09:57:38.692Z</time></trkpt><trkpt lat="43.7307147" lon="12.9220309"><ele>80.0</ele><time>2026-04-04T09:57:39.691Z</time></trkpt><trkpt lat="43.7307386" lon="12.9219341"><ele>80.0</ele><time>2026-04-04T09:57:40.691Z</time></trkpt><trkpt lat="43.7307894" lon="12.921857"><ele>80.0</ele><time>2026-04-04T09:57:41.692Z</time></trkpt><trkpt lat="43.7308604" lon="12.9218023"><ele>80.0</ele><time>2026-04-04T09:57:42.691Z</time></trkpt><trkpt lat="43.7309534" lon="12.9217588"><ele>80.0</ele><time>2026-04-04T09:57:43.692Z</time></trkpt><trkpt lat="43.7310552" lon="12.9217228"><ele>80.0</ele><time>2026-04-04T09:57:44.691Z</time></trkpt><trkpt lat="43.7311705" lon="12.9216872"><ele>80.0</ele><time>2026-04-04T09:57:45.692Z</time></trkpt><trkpt lat="43.7312936" lon="12.9216583"><ele>80.0</ele><time>2026-04-04T09:57:46.691Z</time></trkpt><trkpt lat="43.731413" lon="12.9216348"><ele>78.5</ele><time>2026-04-04T09:57:47.692Z</time></trkpt><trkpt lat="43.7315366" lon="12.9216142"><ele>77.0</ele><time>2026-04-04T09:57:48.691Z</time></trkpt><trkpt lat="43.7316656" lon="12.9215822"><ele>75.5</ele><time>2026-04-04T09:57:49.692Z</time></trkpt><trkpt lat="43.7317961" lon="12.921553"><ele>74.0</ele><time>2026-04-04T09:57:50.692Z</time></trkpt><trkpt lat="43.7319223" lon="12.9215329"><ele>73.5</ele><time>2026-04-04T09:57:51.691Z</time></trkpt><trkpt lat="43.732046" lon="12.9215164"><ele>73.0</ele><time>2026-04-04T09:57:52.691Z</time></trkpt><trkpt lat="43.7321734" lon="12.9214974"><ele>72.5</ele><time>2026-04-04T09:57:53.693Z</time></trkpt><trkpt lat="43.7323013" lon="12.9214919"><ele>72.0</ele><time>2026-04-04T09:57:54.691Z</time></trkpt><trkpt lat="43.7324287" lon="12.9214949"><ele>72.0</ele><time>2026-04-04T09:57:55.691Z</time></trkpt><trkpt lat="43.732554" lon="12.9215068"><ele>72.0</ele><time>2026-04-04T09:57:56.692Z</time></trkpt><trkpt lat="43.7326864" lon="12.9215131"><ele>72.0</ele><time>2026-04-04T09:57:57.691Z</time></trkpt><trkpt lat="43.7328108" lon="12.9215172"><ele>72.0</ele><time>2026-04-04T09:57:58.692Z</time></trkpt><trkpt lat="43.7329399" lon="12.9215152"><ele>71.75</ele><time>2026-04-04T09:57:59.692Z</time></trkpt><trkpt lat="43.7330672" lon="12.9215188"><ele>71.5</ele><time>2026-04-04T09:58:00.691Z</time></trkpt><trkpt lat="43.7331894" lon="12.9215299"><ele>71.25</ele><time>2026-04-04T09:58:01.692Z</time></trkpt><trkpt lat="43.7333135" lon="12.9215466"><ele>71.0</ele><time>2026-04-04T09:58:02.691Z</time></trkpt><trkpt lat="43.7334412" lon="12.9215717"><ele>70.75</ele><time>2026-04-04T09:58:03.692Z</time></trkpt><trkpt lat="43.7335623" lon="12.9216011"><ele>70.5</ele><time>2026-04-04T09:58:04.691Z</time></trkpt><trkpt lat="43.7336851" lon="12.9216426"><ele>70.25</ele><time>2026-04-04T09:58:05.691Z</time></trkpt><trkpt lat="43.7338007" lon="12.9216988"><ele>70.0</ele><time>2026-04-04T09:58:06.692Z</time></trkpt><trkpt lat="43.7339103" lon="12.921769"><ele>70.4</ele><time>2026-04-04T09:58:07.691Z</time></trkpt><trkpt lat="43.7340179" lon="12.9218566"><ele>70.8</ele><time>2026-04-04T09:58:08.691Z</time></trkpt><trkpt lat="43.7341162" lon="12.9219383"><ele>71.2</ele><time>2026-04-04T09:58:09.693Z</time></trkpt><trkpt lat="43.7342098" lon="12.9220096"><ele>71.6</ele><time>2026-04-04T09:58:10.691Z</time></trkpt><trkpt lat="43.7342963" lon="12.9220547"><ele>72.0</ele><time>2026-04-04T09:58:11.691Z</time></trkpt><trkpt lat="43.7343805" lon="12.9220802"><ele>72.0</ele><time>2026-04-04T09:58:12.692Z</time></trkpt><trkpt lat="43.7344701" lon="12.9220861"><ele>72.0</ele><time>2026-04-04T09:58:13.692Z</time></trkpt><trkpt lat="43.7345664" lon="12.9220731"><ele>72.0</ele><time>2026-04-04T09:58:14.692Z</time></trkpt><trkpt lat="43.7346609" lon="12.9220511"><ele>72.0</ele><time>2026-04-04T09:58:15.692Z</time></trkpt><trkpt lat="43.7347348" lon="12.9220425"><ele>72.0</ele><time>2026-04-04T09:58:16.691Z</time></trkpt><trkpt lat="43.7348091" lon="12.9220358"><ele>72.0</ele><time>2026-04-04T09:58:18.692Z</time></trkpt><trkpt lat="43.7348799" lon="12.9220666"><ele>72.0</ele><time>2026-04-04T09:58:23.693Z</time></trkpt><trkpt lat="43.7349453" lon="12.9220785"><ele>72.0</ele><time>2026-04-04T09:58:38.691Z</time></trkpt><trkpt lat="43.7349763" lon="12.9221591"><ele>72.0</ele><time>2026-04-04T09:58:41.691Z</time></trkpt><trkpt lat="43.73492" lon="12.9220606"><ele>72.0</ele><time>2026-04-04T09:58:47.692Z</time></trkpt><trkpt lat="43.7348968" lon="12.9219602"><ele>72.0</ele><time>2026-04-04T09:58:50.691Z</time></trkpt><trkpt lat="43.7349443" lon="12.9218678"><ele>72.0</ele><time>2026-04-04T09:58:52.691Z</time></trkpt><trkpt lat="43.735044" lon="12.9217687"><ele>72.00000000000001</ele><time>2026-04-04T09:58:54.692Z</time></trkpt><trkpt lat="43.7351105" lon="12.9217153"><ele>72.0</ele><time>2026-04-04T09:58:55.692Z</time></trkpt><trkpt lat="43.7351716" lon="12.9216641"><ele>72.0</ele><time>2026-04-04T09:58:56.691Z</time></trkpt><trkpt lat="43.7352405" lon="12.9216279"><ele>72.0</ele><time>2026-04-04T09:58:57.691Z</time></trkpt><trkpt lat="43.7353131" lon="12.9216062"><ele>72.0</ele><time>2026-04-04T09:58:58.691Z</time></trkpt><trkpt lat="43.7353828" lon="12.9215975"><ele>72.00000000000001</ele><time>2026-04-04T09:58:59.691Z</time></trkpt><trkpt lat="43.7354561" lon="12.9215879"><ele>72.0</ele><time>2026-04-04T09:59:00.691Z</time></trkpt><trkpt lat="43.7355345" lon="12.9215818"><ele>72.0</ele><time>2026-04-04T09:59:01.691Z</time></trkpt><trkpt lat="43.7356165" lon="12.9215872"><ele>72.0</ele><time>2026-04-04T09:59:02.691Z</time></trkpt><trkpt lat="43.7357013" lon="12.9215985"><ele>72.0</ele><time>2026-04-04T09:59:03.691Z</time></trkpt><trkpt lat="43.7357916" lon="12.9216109"><ele>72.0</ele><time>2026-04-04T09:59:04.691Z</time></trkpt><trkpt lat="43.7358897" lon="12.9216272"><ele>72.0</ele><time>2026-04-04T09:59:05.691Z</time></trkpt><trkpt lat="43.7359917" lon="12.9216385"><ele>71.8</ele><time>2026-04-04T09:59:06.692Z</time></trkpt><trkpt lat="43.7360922" lon="12.9216433"><ele>71.6</ele><time>2026-04-04T09:59:07.692Z</time></trkpt><trkpt lat="43.7362012" lon="12.9216422"><ele>71.39999999999999</ele><time>2026-04-04T09:59:08.693Z</time></trkpt><trkpt lat="43.7363094" lon="12.9216271"><ele>71.2</ele><time>2026-04-04T09:59:09.691Z</time></trkpt><trkpt lat="43.7364231" lon="12.9215923"><ele>71.0</ele><time>2026-04-04T09:59:10.692Z</time></trkpt><trkpt lat="43.7365374" lon="12.9215702"><ele>71.0</ele><time>2026-04-04T09:59:11.691Z</time></trkpt><trkpt lat="43.7366561" lon="12.9215555"><ele>71.0</ele><time>2026-04-04T09:59:12.691Z</time></trkpt><trkpt lat="43.7367688" lon="12.9215505"><ele>71.0</ele><time>2026-04-04T09:59:13.691Z</time></trkpt><trkpt lat="43.7368831" lon="12.9215642"><ele>71.0</ele><time>2026-04-04T09:59:14.693Z</time></trkpt><trkpt lat="43.7369947" lon="12.921598"><ele>71.0</ele><time>2026-04-04T09:59:15.691Z</time></trkpt><trkpt lat="43.7371134" lon="12.9216255"><ele>71.0</ele><time>2026-04-04T09:59:16.692Z</time></trkpt><trkpt lat="43.7372279" lon="12.9216664"><ele>71.0</ele><time>2026-04-04T09:59:17.692Z</time></trkpt><trkpt lat="43.7373471" lon="12.9217166"><ele>71.0</ele><time>2026-04-04T09:59:18.691Z</time></trkpt><trkpt lat="43.7374694" lon="12.9217603"><ele>71.0</ele><time>2026-04-04T09:59:19.691Z</time></trkpt><trkpt lat="43.7375916" lon="12.9218031"><ele>71.0</ele><time>2026-04-04T09:59:20.691Z</time></trkpt><trkpt lat="43.7377131" lon="12.9218486"><ele>71.0</ele><time>2026-04-04T09:59:21.691Z</time></trkpt><trkpt lat="43.7378354" lon="12.9218895"><ele>71.0</ele><time>2026-04-04T09:59:22.692Z</time></trkpt><trkpt lat="43.7379451" lon="12.9219375"><ele>70.6</ele><time>2026-04-04T09:59:23.691Z</time></trkpt><trkpt lat="43.7380506" lon="12.9219953"><ele>70.19999999999999</ele><time>2026-04-04T09:59:24.692Z</time></trkpt><trkpt lat="43.7381448" lon="12.9220576"><ele>69.80000000000001</ele><time>2026-04-04T09:59:25.691Z</time></trkpt><trkpt lat="43.7382405" lon="12.9221248"><ele>69.4</ele><time>2026-04-04T09:59:26.691Z</time></trkpt><trkpt lat="43.738332" lon="12.9221984"><ele>69.0</ele><time>2026-04-04T09:59:27.692Z</time></trkpt><trkpt lat="43.7384175" lon="12.9222815"><ele>69.0</ele><time>2026-04-04T09:59:28.691Z</time></trkpt><trkpt lat="43.738485" lon="12.9223352"><ele>69.0</ele><time>2026-04-04T09:59:29.691Z</time></trkpt><trkpt lat="43.738554" lon="12.9223782"><ele>69.0</ele><time>2026-04-04T09:59:30.691Z</time></trkpt><trkpt lat="43.7386179" lon="12.9223928"><ele>69.0</ele><time>2026-04-04T09:59:31.691Z</time></trkpt><trkpt lat="43.7386834" lon="12.9224091"><ele>69.0</ele><time>2026-04-04T09:59:32.691Z</time></trkpt><trkpt lat="43.738751" lon="12.9223998"><ele>69.0</ele><time>2026-04-04T09:59:33.692Z</time></trkpt><trkpt lat="43.7388169" lon="12.922385"><ele>69.0</ele><time>2026-04-04T09:59:34.691Z</time></trkpt><trkpt lat="43.7388849" lon="12.922364"><ele>68.0</ele><time>2026-04-04T09:59:35.693Z</time></trkpt><trkpt lat="43.7389547" lon="12.922325"><ele>67.0</ele><time>2026-04-04T09:59:36.691Z</time></trkpt><trkpt lat="43.7390268" lon="12.9222779"><ele>66.0</ele><time>2026-04-04T09:59:37.691Z</time></trkpt><trkpt lat="43.7390986" lon="12.9222283"><ele>65.0</ele><time>2026-04-04T09:59:38.691Z</time></trkpt><trkpt lat="43.7391639" lon="12.9221724"><ele>64.0</ele><time>2026-04-04T09:59:39.692Z</time></trkpt><trkpt lat="43.7392372" lon="12.9221285"><ele>63.0</ele><time>2026-04-04T09:59:40.691Z</time></trkpt><trkpt lat="43.7393037" lon="12.9220774"><ele>63.0</ele><time>2026-04-04T09:59:41.691Z</time></trkpt><trkpt lat="43.7393623" lon="12.9220334"><ele>63.0</ele><time>2026-04-04T09:59:42.691Z</time></trkpt><trkpt lat="43.7394856" lon="12.9219819"><ele>63.0</ele><time>2026-04-04T09:59:44.692Z</time></trkpt><trkpt lat="43.7396066" lon="12.9219482"><ele>63.0</ele><time>2026-04-04T09:59:46.691Z</time></trkpt><trkpt lat="43.7396699" lon="12.9219357"><ele>63.0</ele><time>2026-04-04T09:59:47.691Z</time></trkpt><trkpt lat="43.7397376" lon="12.9219244"><ele>61.5</ele><time>2026-04-04T09:59:48.691Z</time></trkpt><trkpt lat="43.7398101" lon="12.9219139"><ele>60.0</ele><time>2026-04-04T09:59:49.692Z</time></trkpt><trkpt lat="43.7398913" lon="12.9218986"><ele>58.5</ele><time>2026-04-04T09:59:50.691Z</time></trkpt><trkpt lat="43.7399668" lon="12.9218814"><ele>57.0</ele><time>2026-04-04T09:59:51.691Z</time></trkpt><trkpt lat="43.7400661" lon="12.9218662"><ele>55.5</ele><time>2026-04-04T09:59:52.691Z</time></trkpt><trkpt lat="43.7401548" lon="12.9218733"><ele>54.0</ele><time>2026-04-04T09:59:53.691Z</time></trkpt><trkpt lat="43.7402432" lon="12.9218943"><ele>54.0</ele><time>2026-04-04T09:59:54.691Z</time></trkpt><trkpt lat="43.7403446" lon="12.9219193"><ele>54.00000000000001</ele><time>2026-04-04T09:59:55.691Z</time></trkpt><trkpt lat="43.7404393" lon="12.9219496"><ele>54.00000000000001</ele><time>2026-04-04T09:59:56.692Z</time></trkpt><trkpt lat="43.7405374" lon="12.9219817"><ele>54.0</ele><time>2026-04-04T09:59:57.691Z</time></trkpt><trkpt lat="43.7406345" lon="12.9220189"><ele>54.0</ele><time>2026-04-04T09:59:58.691Z</time></trkpt><trkpt lat="43.7407331" lon="12.9220538"><ele>54.0</ele><time>2026-04-04T09:59:59.691Z</time></trkpt><trkpt lat="43.7408328" lon="12.9220954"><ele>54.00000000000001</ele><time>2026-04-04T10:00:00.692Z</time></trkpt><trkpt lat="43.7409336" lon="12.922134"><ele>54.00000000000001</ele><time>2026-04-04T10:00:01.692Z</time></trkpt><trkpt lat="43.7410398" lon="12.9221681"><ele>54.0</ele><time>2026-04-04T10:00:02.692Z</time></trkpt><trkpt lat="43.7411492" lon="12.9222084"><ele>54.0</ele><time>2026-04-04T10:00:03.691Z</time></trkpt><trkpt lat="43.7412524" lon="12.9222485"><ele>54.5</ele><time>2026-04-04T10:00:04.691Z</time></trkpt><trkpt lat="43.7413606" lon="12.9222833"><ele>55.0</ele><time>2026-04-04T10:00:05.691Z</time></trkpt><trkpt lat="43.7414748" lon="12.9223129"><ele>55.5</ele><time>2026-04-04T10:00:06.691Z</time></trkpt><trkpt lat="43.7415911" lon="12.9223445"><ele>56.0</ele><time>2026-04-04T10:00:07.692Z</time></trkpt><trkpt lat="43.741717" lon="12.9223693"><ele>56.0</ele><time>2026-04-04T10:00:08.691Z</time></trkpt><trkpt lat="43.7418376" lon="12.9223939"><ele>55.99999999999999</ele><time>2026-04-04T10:00:09.691Z</time></trkpt><trkpt lat="43.7419407" lon="12.9224318"><ele>55.99999999999999</ele><time>2026-04-04T10:00:10.692Z</time></trkpt><trkpt lat="43.7420401" lon="12.9224813"><ele>56.0</ele><time>2026-04-04T10:00:11.691Z</time></trkpt><trkpt lat="43.742137" lon="12.9225369"><ele>56.0</ele><time>2026-04-04T10:00:12.692Z</time></trkpt><trkpt lat="43.7422361" lon="12.9226004"><ele>55.0</ele><time>2026-04-04T10:00:13.691Z</time></trkpt><trkpt lat="43.7423319" lon="12.9226624"><ele>53.99999999999999</ele><time>2026-04-04T10:00:14.691Z</time></trkpt><trkpt lat="43.7424259" lon="12.9227126"><ele>53.0</ele><time>2026-04-04T10:00:16.692Z</time></trkpt><trkpt lat="43.7424936" lon="12.9227498"><ele>52.0</ele><time>2026-04-04T10:00:17.691Z</time></trkpt><trkpt lat="43.7425671" lon="12.9227825"><ele>51.0</ele><time>2026-04-04T10:00:18.692Z</time></trkpt><trkpt lat="43.7426589" lon="12.9228231"><ele>50.5</ele><time>2026-04-04T10:00:19.692Z</time></trkpt><trkpt lat="43.7427543" lon="12.9228709"><ele>50.0</ele><time>2026-04-04T10:00:20.691Z</time></trkpt><trkpt lat="43.7428563" lon="12.9229312"><ele>49.5</ele><time>2026-04-04T10:00:21.692Z</time></trkpt><trkpt lat="43.7429698" lon="12.9229907"><ele>49.0</ele><time>2026-04-04T10:00:22.691Z</time></trkpt><trkpt lat="43.7430756" lon="12.923061"><ele>49.0</ele><time>2026-04-04T10:00:23.691Z</time></trkpt><trkpt lat="43.7431829" lon="12.9231214"><ele>49.0</ele><time>2026-04-04T10:00:24.691Z</time></trkpt><trkpt lat="43.7432923" lon="12.9232054"><ele>49.0</ele><time>2026-04-04T10:00:25.691Z</time></trkpt><trkpt lat="43.7434023" lon="12.9233018"><ele>49.0</ele><time>2026-04-04T10:00:26.691Z</time></trkpt><trkpt lat="43.7434869" lon="12.9234184"><ele>48.800000000000004</ele><time>2026-04-04T10:00:27.691Z</time></trkpt><trkpt lat="43.7435713" lon="12.9235124"><ele>48.6</ele><time>2026-04-04T10:00:28.691Z</time></trkpt><trkpt lat="43.7436419" lon="12.9236162"><ele>48.4</ele><time>2026-04-04T10:00:29.692Z</time></trkpt><trkpt lat="43.7437137" lon="12.9237144"><ele>48.2</ele><time>2026-04-04T10:00:30.691Z</time></trkpt><trkpt lat="43.7437753" lon="12.9238207"><ele>48.0</ele><time>2026-04-04T10:00:31.691Z</time></trkpt><trkpt lat="43.7438397" lon="12.9239254"><ele>48.0</ele><time>2026-04-04T10:00:32.691Z</time></trkpt><trkpt lat="43.7439153" lon="12.9240189"><ele>48.0</ele><time>2026-04-04T10:00:33.692Z</time></trkpt><trkpt lat="43.7440066" lon="12.9240782"><ele>48.0</ele><time>2026-04-04T10:00:34.691Z</time></trkpt><trkpt lat="43.7441166" lon="12.924135"><ele>48.0</ele><time>2026-04-04T10:00:35.692Z</time></trkpt><trkpt lat="43.7442272" lon="12.9241802"><ele>48.0</ele><time>2026-04-04T10:00:36.691Z</time></trkpt><trkpt lat="43.744325" lon="12.9242096"><ele>48.0</ele><time>2026-04-04T10:00:37.691Z</time></trkpt><trkpt lat="43.7444175" lon="12.9242499"><ele>48.0</ele><time>2026-04-04T10:00:38.691Z</time></trkpt><trkpt lat="43.744487" lon="12.9242944"><ele>48.0</ele><time>2026-04-04T10:00:39.691Z</time></trkpt><trkpt lat="43.7445667" lon="12.9243483"><ele>48.0</ele><time>2026-04-04T10:00:41.692Z</time></trkpt><trkpt lat="43.7446299" lon="12.9243206"><ele>48.0</ele><time>2026-04-04T10:00:45.691Z</time></trkpt><trkpt lat="43.7446986" lon="12.9242506"><ele>48.0</ele><time>2026-04-04T10:00:49.691Z</time></trkpt><trkpt lat="43.7447599" lon="12.9242003"><ele>48.0</ele><time>2026-04-04T10:00:51.691Z</time></trkpt><trkpt lat="43.7448438" lon="12.9241405"><ele>48.0</ele><time>2026-04-04T10:00:53.691Z</time></trkpt><trkpt lat="43.74494" lon="12.924088"><ele>48.0</ele><time>2026-04-04T10:00:55.691Z</time></trkpt><trkpt lat="43.7450093" lon="12.9240632"><ele>48.0</ele><time>2026-04-04T10:00:57.691Z</time></trkpt><trkpt lat="43.7450877" lon="12.9240785"><ele>48.0</ele><time>2026-04-04T10:00:59.691Z</time></trkpt><trkpt lat="43.745159" lon="12.9241245"><ele>48.0</ele><time>2026-04-04T10:01:01.691Z</time></trkpt><trkpt lat="43.7452006" lon="12.9242424"><ele>47.833333333333336</ele><time>2026-04-04T10:01:05.691Z</time></trkpt><trkpt lat="43.7452438" lon="12.9243407"><ele>47.666666666666664</ele><time>2026-04-04T10:01:07.691Z</time></trkpt><trkpt lat="43.7452977" lon="12.9244841"><ele>47.5</ele><time>2026-04-04T10:01:09.691Z</time></trkpt><trkpt lat="43.7453298" lon="12.9245601"><ele>47.33333333333333</ele><time>2026-04-04T10:01:10.692Z</time></trkpt><trkpt lat="43.7453644" lon="12.9246426"><ele>47.166666666666664</ele><time>2026-04-04T10:01:11.691Z</time></trkpt><trkpt lat="43.7453999" lon="12.9247233"><ele>47.0</ele><time>2026-04-04T10:01:12.692Z</time></trkpt><trkpt lat="43.7454431" lon="12.9248003"><ele>47.0</ele><time>2026-04-04T10:01:13.691Z</time></trkpt><trkpt lat="43.7455186" lon="12.9249424"><ele>47.0</ele><time>2026-04-04T10:01:15.692Z</time></trkpt><trkpt lat="43.7455584" lon="12.9250109"><ele>47.0</ele><time>2026-04-04T10:01:16.692Z</time></trkpt><trkpt lat="43.745612" lon="12.9250952"><ele>47.0</ele><time>2026-04-04T10:01:17.691Z</time></trkpt><trkpt lat="43.7456629" lon="12.9251706"><ele>47.0</ele><time>2026-04-04T10:01:18.691Z</time></trkpt><trkpt lat="43.7457171" lon="12.9252433"><ele>47.0</ele><time>2026-04-04T10:01:19.691Z</time></trkpt><trkpt lat="43.7457679" lon="12.9253074"><ele>47.0</ele><time>2026-04-04T10:01:20.691Z</time></trkpt><trkpt lat="43.7458141" lon="12.9253753"><ele>47.0</ele><time>2026-04-04T10:01:21.692Z</time></trkpt><trkpt lat="43.7458882" lon="12.9254927"><ele>47.0</ele><time>2026-04-04T10:01:23.691Z</time></trkpt><trkpt lat="43.7459356" lon="12.925603"><ele>47.0</ele><time>2026-04-04T10:01:25.691Z</time></trkpt><trkpt lat="43.7459642" lon="12.9256843"><ele>47.0</ele><time>2026-04-04T10:01:27.691Z</time></trkpt><trkpt lat="43.7459813" lon="12.9257788"><ele>47.0</ele><time>2026-04-04T10:01:29.692Z</time></trkpt><trkpt lat="43.7460146" lon="12.9258783"><ele>46.666666666666664</ele><time>2026-04-04T10:01:31.692Z</time></trkpt><trkpt lat="43.7460294" lon="12.925982"><ele>46.33333333333333</ele><time>2026-04-04T10:01:34.691Z</time></trkpt><trkpt lat="43.7461023" lon="12.9260487"><ele>46.0</ele><time>2026-04-04T10:01:37.691Z</time></trkpt><trkpt lat="43.7461546" lon="12.9261027"><ele>45.666666666666664</ele><time>2026-04-04T10:01:39.693Z</time></trkpt><trkpt lat="43.746158" lon="12.9262261"><ele>45.333333333333336</ele><time>2026-04-04T10:01:41.691Z</time></trkpt><trkpt lat="43.7461816" lon="12.9263652"><ele>45.0</ele><time>2026-04-04T10:01:43.691Z</time></trkpt><trkpt lat="43.7462385" lon="12.9264836"><ele>44.833333333333336</ele><time>2026-04-04T10:01:45.691Z</time></trkpt><trkpt lat="43.7462762" lon="12.9265575"><ele>44.666666666666664</ele><time>2026-04-04T10:01:46.692Z</time></trkpt><trkpt lat="43.7463751" lon="12.9266756"><ele>44.5</ele><time>2026-04-04T10:01:48.691Z</time></trkpt><trkpt lat="43.74645" lon="12.9267492"><ele>44.33333333333333</ele><time>2026-04-04T10:01:50.691Z</time></trkpt><trkpt lat="43.7464751" lon="12.9268323"><ele>44.166666666666664</ele><time>2026-04-04T10:01:53.691Z</time></trkpt><trkpt lat="43.7464729" lon="12.9269487"><ele>44.0</ele><time>2026-04-04T10:01:55.691Z</time></trkpt><trkpt lat="43.7464687" lon="12.9270441"><ele>44.0</ele><time>2026-04-04T10:01:57.691Z</time></trkpt><trkpt lat="43.7464619" lon="12.9271568"><ele>44.0</ele><time>2026-04-04T10:02:00.691Z</time></trkpt><trkpt lat="43.7465056" lon="12.9272218"><ele>44.0</ele><time>2026-04-04T10:02:02.692Z</time></trkpt><trkpt lat="43.7465685" lon="12.9272527"><ele>44.0</ele><time>2026-04-04T10:02:04.691Z</time></trkpt><trkpt lat="43.746632" lon="12.9272859"><ele>44.0</ele><time>2026-04-04T10:02:07.69Z</time></trkpt><trkpt lat="43.7465613" lon="12.9272414"><ele>44.0</ele><time>2026-04-04T10:02:31.691Z</time></trkpt><trkpt lat="43.7464975" lon="12.9272165"><ele>44.0</ele><time>2026-04-04T10:02:33.691Z</time></trkpt><trkpt lat="43.746424" lon="12.9271931"><ele>44.0</ele><time>2026-04-04T10:02:37.691Z</time></trkpt><trkpt lat="43.7464011" lon="12.9273101"><ele>44.0</ele><time>2026-04-04T10:02:44.691Z</time></trkpt><trkpt lat="43.7463947" lon="12.9274801"><ele>44.0</ele><time>2026-04-04T10:02:46.691Z</time></trkpt><trkpt lat="43.746381" lon="12.9276283"><ele>44.0</ele><time>2026-04-04T10:02:48.692Z</time></trkpt><trkpt lat="43.7463686" lon="12.9277519"><ele>44.0</ele><time>2026-04-04T10:02:50.691Z</time></trkpt><trkpt lat="43.74637" lon="12.9278512"><ele>43.800000000000004</ele><time>2026-04-04T10:02:52.691Z</time></trkpt><trkpt lat="43.7464345" lon="12.9279839"><ele>43.6</ele><time>2026-04-04T10:02:54.691Z</time></trkpt><trkpt lat="43.7464739" lon="12.9280721"><ele>43.4</ele><time>2026-04-04T10:02:55.691Z</time></trkpt><trkpt lat="43.7465048" lon="12.928179"><ele>43.2</ele><time>2026-04-04T10:02:56.692Z</time></trkpt><trkpt lat="43.7465226" lon="12.9283039"><ele>43.0</ele><time>2026-04-04T10:02:57.691Z</time></trkpt><trkpt lat="43.7465395" lon="12.9284368"><ele>42.75</ele><time>2026-04-04T10:02:58.691Z</time></trkpt><trkpt lat="43.746558" lon="12.9285848"><ele>42.5</ele><time>2026-04-04T10:02:59.691Z</time></trkpt><trkpt lat="43.7465833" lon="12.9287426"><ele>42.25</ele><time>2026-04-04T10:03:00.691Z</time></trkpt><trkpt lat="43.7466105" lon="12.9289076"><ele>42.0</ele><time>2026-04-04T10:03:01.691Z</time></trkpt><trkpt lat="43.7466584" lon="12.9290726"><ele>42.25</ele><time>2026-04-04T10:03:02.691Z</time></trkpt><trkpt lat="43.7467269" lon="12.9292467"><ele>42.5</ele><time>2026-04-04T10:03:03.691Z</time></trkpt><trkpt lat="43.7468024" lon="12.9294206"><ele>42.75</ele><time>2026-04-04T10:03:04.692Z</time></trkpt><trkpt lat="43.746886" lon="12.9295816"><ele>43.0</ele><time>2026-04-04T10:03:05.692Z</time></trkpt><trkpt lat="43.746979" lon="12.9297365"><ele>42.5</ele><time>2026-04-04T10:03:06.691Z</time></trkpt><trkpt lat="43.7470783" lon="12.9298943"><ele>42.0</ele><time>2026-04-04T10:03:07.69Z</time></trkpt><trkpt lat="43.7471875" lon="12.9300508"><ele>41.5</ele><time>2026-04-04T10:03:08.692Z</time></trkpt><trkpt lat="43.7472936" lon="12.9301787"><ele>41.0</ele><time>2026-04-04T10:03:09.69Z</time></trkpt><trkpt lat="43.747393" lon="12.9302958"><ele>41.0</ele><time>2026-04-04T10:03:10.691Z</time></trkpt><trkpt lat="43.7474877" lon="12.9304126"><ele>41.0</ele><time>2026-04-04T10:03:11.691Z</time></trkpt><trkpt lat="43.7475854" lon="12.9305303"><ele>41.0</ele><time>2026-04-04T10:03:12.691Z</time></trkpt><trkpt lat="43.7476822" lon="12.9306441"><ele>41.0</ele><time>2026-04-04T10:03:13.692Z</time></trkpt><trkpt lat="43.7477845" lon="12.9307496"><ele>41.0</ele><time>2026-04-04T10:03:14.691Z</time></trkpt><trkpt lat="43.7478858" lon="12.9308643"><ele>41.0</ele><time>2026-04-04T10:03:15.691Z</time></trkpt><trkpt lat="43.7479875" lon="12.9309806"><ele>41.0</ele><time>2026-04-04T10:03:16.691Z</time></trkpt><trkpt lat="43.7480839" lon="12.9310967"><ele>41.0</ele><time>2026-04-04T10:03:17.692Z</time></trkpt><trkpt lat="43.7481706" lon="12.9312214"><ele>40.75</ele><time>2026-04-04T10:03:18.692Z</time></trkpt><trkpt lat="43.7482502" lon="12.9313528"><ele>40.5</ele><time>2026-04-04T10:03:19.691Z</time></trkpt><trkpt lat="43.7483157" lon="12.9314892"><ele>40.25</ele><time>2026-04-04T10:03:20.69Z</time></trkpt><trkpt lat="43.7483633" lon="12.9316381"><ele>40.0</ele><time>2026-04-04T10:03:21.692Z</time></trkpt><trkpt lat="43.7483814" lon="12.9317969"><ele>40.0</ele><time>2026-04-04T10:03:22.691Z</time></trkpt><trkpt lat="43.7483955" lon="12.9319223"><ele>40.0</ele><time>2026-04-04T10:03:23.691Z</time></trkpt><trkpt lat="43.7484039" lon="12.9320358"><ele>40.0</ele><time>2026-04-04T10:03:24.691Z</time></trkpt><trkpt lat="43.7484177" lon="12.9321494"><ele>40.0</ele><time>2026-04-04T10:03:25.691Z</time></trkpt><trkpt lat="43.7484385" lon="12.9322667"><ele>40.0</ele><time>2026-04-04T10:03:26.693Z</time></trkpt><trkpt lat="43.7484713" lon="12.9323819"><ele>40.0</ele><time>2026-04-04T10:03:27.691Z</time></trkpt><trkpt lat="43.7485124" lon="12.9325017"><ele>40.2</ele><time>2026-04-04T10:03:28.691Z</time></trkpt><trkpt lat="43.7485595" lon="12.9326244"><ele>40.4</ele><time>2026-04-04T10:03:29.692Z</time></trkpt><trkpt lat="43.7486077" lon="12.9327596"><ele>40.599999999999994</ele><time>2026-04-04T10:03:30.692Z</time></trkpt><trkpt lat="43.748656" lon="12.9328929"><ele>40.8</ele><time>2026-04-04T10:03:31.69Z</time></trkpt><trkpt lat="43.748706" lon="12.9330345"><ele>41.0</ele><time>2026-04-04T10:03:32.691Z</time></trkpt><trkpt lat="43.7487632" lon="12.9331751"><ele>41.0</ele><time>2026-04-04T10:03:33.692Z</time></trkpt><trkpt lat="43.7488181" lon="12.9333161"><ele>41.0</ele><time>2026-04-04T10:03:34.692Z</time></trkpt><trkpt lat="43.7488757" lon="12.9334559"><ele>41.0</ele><time>2026-04-04T10:03:35.691Z</time></trkpt><trkpt lat="43.7489315" lon="12.9336077"><ele>41.0</ele><time>2026-04-04T10:03:36.691Z</time></trkpt><trkpt lat="43.7489854" lon="12.9337594"><ele>40.75</ele><time>2026-04-04T10:03:37.691Z</time></trkpt><trkpt lat="43.749039" lon="12.9339107"><ele>40.5</ele><time>2026-04-04T10:03:38.691Z</time></trkpt><trkpt lat="43.7490983" lon="12.9340518"><ele>40.25</ele><time>2026-04-04T10:03:39.692Z</time></trkpt><trkpt lat="43.7491598" lon="12.934204"><ele>40.0</ele><time>2026-04-04T10:03:40.691Z</time></trkpt><trkpt lat="43.7492098" lon="12.9343492"><ele>39.8</ele><time>2026-04-04T10:03:41.691Z</time></trkpt><trkpt lat="43.7492574" lon="12.934489"><ele>39.6</ele><time>2026-04-04T10:03:42.691Z</time></trkpt><trkpt lat="43.7492875" lon="12.9346317"><ele>39.4</ele><time>2026-04-04T10:03:43.69Z</time></trkpt><trkpt lat="43.7493168" lon="12.9347778"><ele>39.2</ele><time>2026-04-04T10:03:44.692Z</time></trkpt><trkpt lat="43.7493335" lon="12.9349045"><ele>39.0</ele><time>2026-04-04T10:03:45.691Z</time></trkpt><trkpt lat="43.7493406" lon="12.9350123"><ele>39.2</ele><time>2026-04-04T10:03:46.691Z</time></trkpt><trkpt lat="43.7493493" lon="12.9351177"><ele>39.4</ele><time>2026-04-04T10:03:47.692Z</time></trkpt><trkpt lat="43.7493642" lon="12.9352324"><ele>39.6</ele><time>2026-04-04T10:03:48.691Z</time></trkpt><trkpt lat="43.7493763" lon="12.9353601"><ele>39.8</ele><time>2026-04-04T10:03:49.691Z</time></trkpt><trkpt lat="43.7493933" lon="12.9354957"><ele>40.0</ele><time>2026-04-04T10:03:50.691Z</time></trkpt><trkpt lat="43.7494095" lon="12.9356358"><ele>40.0</ele><time>2026-04-04T10:03:51.691Z</time></trkpt><trkpt lat="43.7494303" lon="12.935789"><ele>40.0</ele><time>2026-04-04T10:03:52.691Z</time></trkpt><trkpt lat="43.7494588" lon="12.9359428"><ele>40.0</ele><time>2026-04-04T10:03:53.69Z</time></trkpt><trkpt lat="43.7494969" lon="12.9360993"><ele>40.0</ele><time>2026-04-04T10:03:54.692Z</time></trkpt><trkpt lat="43.7495391" lon="12.9362576"><ele>40.0</ele><time>2026-04-04T10:03:55.692Z</time></trkpt><trkpt lat="43.7495971" lon="12.9364163"><ele>40.0</ele><time>2026-04-04T10:03:56.691Z</time></trkpt><trkpt lat="43.7496585" lon="12.9365744"><ele>40.0</ele><time>2026-04-04T10:03:57.691Z</time></trkpt><trkpt lat="43.7497211" lon="12.936727"><ele>40.0</ele><time>2026-04-04T10:03:58.691Z</time></trkpt><trkpt lat="43.7497861" lon="12.9368757"><ele>40.25</ele><time>2026-04-04T10:03:59.691Z</time></trkpt><trkpt lat="43.749846" lon="12.9370206"><ele>40.5</ele><time>2026-04-04T10:04:00.691Z</time></trkpt><trkpt lat="43.7499056" lon="12.9371615"><ele>40.75</ele><time>2026-04-04T10:04:01.692Z</time></trkpt><trkpt lat="43.749971" lon="12.9372935"><ele>41.0</ele><time>2026-04-04T10:04:02.69Z</time></trkpt><trkpt lat="43.7500503" lon="12.9374115"><ele>41.0</ele><time>2026-04-04T10:04:03.691Z</time></trkpt><trkpt lat="43.7501493" lon="12.9375059"><ele>41.0</ele><time>2026-04-04T10:04:04.691Z</time></trkpt><trkpt lat="43.7502563" lon="12.9375791"><ele>41.0</ele><time>2026-04-04T10:04:05.692Z</time></trkpt><trkpt lat="43.7503737" lon="12.9376282"><ele>41.0</ele><time>2026-04-04T10:04:06.691Z</time></trkpt><trkpt lat="43.7504864" lon="12.9376642"><ele>40.75</ele><time>2026-04-04T10:04:07.691Z</time></trkpt><trkpt lat="43.7506037" lon="12.9376885"><ele>40.5</ele><time>2026-04-04T10:04:08.691Z</time></trkpt><trkpt lat="43.7507191" lon="12.9377036"><ele>40.25</ele><time>2026-04-04T10:04:09.691Z</time></trkpt><trkpt lat="43.7508343" lon="12.9377101"><ele>40.0</ele><time>2026-04-04T10:04:10.691Z</time></trkpt><trkpt lat="43.7509506" lon="12.9376898"><ele>39.6</ele><time>2026-04-04T10:04:11.691Z</time></trkpt><trkpt lat="43.7510618" lon="12.9376539"><ele>39.2</ele><time>2026-04-04T10:04:12.692Z</time></trkpt><trkpt lat="43.7511686" lon="12.9376185"><ele>38.8</ele><time>2026-04-04T10:04:13.691Z</time></trkpt><trkpt lat="43.7512696" lon="12.9375756"><ele>38.4</ele><time>2026-04-04T10:04:14.691Z</time></trkpt><trkpt lat="43.7513758" lon="12.9375394"><ele>38.0</ele><time>2026-04-04T10:04:15.692Z</time></trkpt><trkpt lat="43.7514804" lon="12.9375119"><ele>38.0</ele><time>2026-04-04T10:04:16.692Z</time></trkpt><trkpt lat="43.7515848" lon="12.9374808"><ele>38.0</ele><time>2026-04-04T10:04:17.691Z</time></trkpt><trkpt lat="43.7516772" lon="12.9374499"><ele>38.0</ele><time>2026-04-04T10:04:18.692Z</time></trkpt><trkpt lat="43.7517652" lon="12.9374248"><ele>38.0</ele><time>2026-04-04T10:04:19.691Z</time></trkpt><trkpt lat="43.7518403" lon="12.9374066"><ele>38.0</ele><time>2026-04-04T10:04:20.692Z</time></trkpt><trkpt lat="43.7519048" lon="12.9373886"><ele>38.0</ele><time>2026-04-04T10:04:21.691Z</time></trkpt><trkpt lat="43.75201" lon="12.9373563"><ele>38.25</ele><time>2026-04-04T10:04:23.692Z</time></trkpt><trkpt lat="43.7521173" lon="12.9373218"><ele>38.5</ele><time>2026-04-04T10:04:25.691Z</time></trkpt><trkpt lat="43.7522267" lon="12.9373026"><ele>38.75</ele><time>2026-04-04T10:04:27.692Z</time></trkpt><trkpt lat="43.7523374" lon="12.9372667"><ele>39.0</ele><time>2026-04-04T10:04:29.691Z</time></trkpt><trkpt lat="43.7524547" lon="12.9372242"><ele>39.0</ele><time>2026-04-04T10:04:31.692Z</time></trkpt><trkpt lat="43.7525876" lon="12.9371759"><ele>39.0</ele><time>2026-04-04T10:04:33.691Z</time></trkpt><trkpt lat="43.7526606" lon="12.9371465"><ele>39.0</ele><time>2026-04-04T10:04:34.691Z</time></trkpt><trkpt lat="43.7527421" lon="12.9371166"><ele>39.0</ele><time>2026-04-04T10:04:35.691Z</time></trkpt><trkpt lat="43.7528258" lon="12.9370873"><ele>39.0</ele><time>2026-04-04T10:04:36.691Z</time></trkpt><trkpt lat="43.752908" lon="12.9370616"><ele>38.833333333333336</ele><time>2026-04-04T10:04:37.692Z</time></trkpt><trkpt lat="43.7529825" lon="12.9370332"><ele>38.666666666666664</ele><time>2026-04-04T10:04:38.691Z</time></trkpt><trkpt lat="43.7530479" lon="12.937006"><ele>38.5</ele><time>2026-04-04T10:04:39.692Z</time></trkpt><trkpt lat="43.7531463" lon="12.9369644"><ele>38.33333333333333</ele><time>2026-04-04T10:04:41.69Z</time></trkpt><trkpt lat="43.7532168" lon="12.9369612"><ele>38.166666666666664</ele><time>2026-04-04T10:04:43.692Z</time></trkpt><trkpt lat="43.7532923" lon="12.9370252"><ele>38.0</ele><time>2026-04-04T10:04:45.691Z</time></trkpt><trkpt lat="43.753386" lon="12.9371215"><ele>38.0</ele><time>2026-04-04T10:04:47.69Z</time></trkpt><trkpt lat="43.7534387" lon="12.9371768"><ele>38.0</ele><time>2026-04-04T10:04:48.69Z</time></trkpt><trkpt lat="43.7534992" lon="12.9372299"><ele>38.0</ele><time>2026-04-04T10:04:49.691Z</time></trkpt><trkpt lat="43.7535557" lon="12.9372697"><ele>38.0</ele><time>2026-04-04T10:04:50.691Z</time></trkpt><trkpt lat="43.7536167" lon="12.9373337"><ele>38.0</ele><time>2026-04-04T10:04:51.691Z</time></trkpt><trkpt lat="43.753676" lon="12.937394"><ele>38.0</ele><time>2026-04-04T10:04:52.69Z</time></trkpt><trkpt lat="43.7537342" lon="12.9374524"><ele>38.0</ele><time>2026-04-04T10:04:53.692Z</time></trkpt><trkpt lat="43.7537885" lon="12.9375131"><ele>38.0</ele><time>2026-04-04T10:04:54.691Z</time></trkpt><trkpt lat="43.7538386" lon="12.9375717"><ele>38.0</ele><time>2026-04-04T10:04:55.691Z</time></trkpt><trkpt lat="43.7538859" lon="12.9376403"><ele>38.0</ele><time>2026-04-04T10:04:56.691Z</time></trkpt><trkpt lat="43.7539395" lon="12.9377085"><ele>38.0</ele><time>2026-04-04T10:04:57.691Z</time></trkpt><trkpt lat="43.7539874" lon="12.9377783"><ele>38.0</ele><time>2026-04-04T10:04:58.691Z</time></trkpt><trkpt lat="43.7540312" lon="12.9378531"><ele>38.0</ele><time>2026-04-04T10:04:59.69Z</time></trkpt><trkpt lat="43.7540727" lon="12.9379223"><ele>38.0</ele><time>2026-04-04T10:05:00.69Z</time></trkpt><trkpt lat="43.7541617" lon="12.938033"><ele>38.0</ele><time>2026-04-04T10:05:02.691Z</time></trkpt><trkpt lat="43.7542435" lon="12.9381661"><ele>38.0</ele><time>2026-04-04T10:05:04.691Z</time></trkpt><trkpt lat="43.7543401" lon="12.9382841"><ele>38.0</ele><time>2026-04-04T10:05:06.691Z</time></trkpt><trkpt lat="43.7543906" lon="12.9383536"><ele>38.0</ele><time>2026-04-04T10:05:07.69Z</time></trkpt><trkpt lat="43.7544468" lon="12.938433"><ele>38.0</ele><time>2026-04-04T10:05:08.69Z</time></trkpt><trkpt lat="43.7544951" lon="12.938496"><ele>37.666666666666664</ele><time>2026-04-04T10:05:09.691Z</time></trkpt><trkpt lat="43.7545799" lon="12.9386011"><ele>37.33333333333333</ele><time>2026-04-04T10:05:11.691Z</time></trkpt><trkpt lat="43.7546286" lon="12.9386949"><ele>37.0</ele><time>2026-04-04T10:05:13.692Z</time></trkpt><trkpt lat="43.754679" lon="12.9387679"><ele>36.666666666666664</ele><time>2026-04-04T10:05:15.691Z</time></trkpt><trkpt lat="43.7547486" lon="12.9387599"><ele>36.333333333333336</ele><time>2026-04-04T10:05:29.691Z</time></trkpt><trkpt lat="43.7548284" lon="12.9387083"><ele>36.0</ele><time>2026-04-04T10:05:32.69Z</time></trkpt><trkpt lat="43.7548932" lon="12.938673"><ele>36.0</ele><time>2026-04-04T10:05:38.691Z</time></trkpt><trkpt lat="43.7549427" lon="12.9387687"><ele>36.0</ele><time>2026-04-04T10:05:41.691Z</time></trkpt><trkpt lat="43.7549682" lon="12.9388689"><ele>36.0</ele><time>2026-04-04T10:05:43.69Z</time></trkpt><trkpt lat="43.7549986" lon="12.9389772"><ele>36.0</ele><time>2026-04-04T10:05:45.69Z</time></trkpt><trkpt lat="43.7550235" lon="12.9390984"><ele>36.0</ele><time>2026-04-04T10:05:47.69Z</time></trkpt><trkpt lat="43.7550574" lon="12.939226"><ele>36.0</ele><time>2026-04-04T10:05:49.691Z</time></trkpt><trkpt lat="43.7550912" lon="12.9393781"><ele>36.28571428571429</ele><time>2026-04-04T10:05:51.691Z</time></trkpt><trkpt lat="43.7551071" lon="12.9394712"><ele>36.57142857142857</ele><time>2026-04-04T10:05:52.69Z</time></trkpt><trkpt lat="43.7551126" lon="12.9395595"><ele>36.85714285714286</ele><time>2026-04-04T10:05:53.692Z</time></trkpt><trkpt lat="43.7551291" lon="12.9396592"><ele>37.142857142857146</ele><time>2026-04-04T10:05:54.691Z</time></trkpt><trkpt lat="43.7551398" lon="12.9397549"><ele>37.42857142857143</ele><time>2026-04-04T10:05:55.69Z</time></trkpt><trkpt lat="43.7551521" lon="12.9398514"><ele>37.714285714285715</ele><time>2026-04-04T10:05:56.69Z</time></trkpt><trkpt lat="43.7551699" lon="12.9399475"><ele>38.0</ele><time>2026-04-04T10:05:57.692Z</time></trkpt><trkpt lat="43.7551839" lon="12.9400502"><ele>38.0</ele><time>2026-04-04T10:05:58.692Z</time></trkpt><trkpt lat="43.7552022" lon="12.9401429"><ele>38.0</ele><time>2026-04-04T10:05:59.69Z</time></trkpt><trkpt lat="43.7552259" lon="12.9402385"><ele>38.0</ele><time>2026-04-04T10:06:00.691Z</time></trkpt><trkpt lat="43.7552558" lon="12.9403301"><ele>38.0</ele><time>2026-04-04T10:06:01.691Z</time></trkpt><trkpt lat="43.7552738" lon="12.9404253"><ele>38.0</ele><time>2026-04-04T10:06:02.692Z</time></trkpt><trkpt lat="43.7552943" lon="12.9405287"><ele>38.0</ele><time>2026-04-04T10:06:03.691Z</time></trkpt><trkpt lat="43.7553196" lon="12.9406211"><ele>38.0</ele><time>2026-04-04T10:06:04.693Z</time></trkpt><trkpt lat="43.7553435" lon="12.9407228"><ele>37.8</ele><time>2026-04-04T10:06:05.691Z</time></trkpt><trkpt lat="43.75536" lon="12.9408453"><ele>37.599999999999994</ele><time>2026-04-04T10:06:06.692Z</time></trkpt><trkpt lat="43.755384" lon="12.9409729"><ele>37.400000000000006</ele><time>2026-04-04T10:06:07.691Z</time></trkpt><trkpt lat="43.7554109" lon="12.9410895"><ele>37.2</ele><time>2026-04-04T10:06:08.691Z</time></trkpt><trkpt lat="43.7554356" lon="12.9412118"><ele>37.0</ele><time>2026-04-04T10:06:09.69Z</time></trkpt><trkpt lat="43.7554598" lon="12.941335"><ele>37.0</ele><time>2026-04-04T10:06:10.692Z</time></trkpt><trkpt lat="43.7554822" lon="12.9414496"><ele>37.0</ele><time>2026-04-04T10:06:11.69Z</time></trkpt><trkpt lat="43.7555082" lon="12.9415546"><ele>37.0</ele><time>2026-04-04T10:06:12.691Z</time></trkpt><trkpt lat="43.7555317" lon="12.9416547"><ele>37.0</ele><time>2026-04-04T10:06:13.692Z</time></trkpt><trkpt lat="43.7555575" lon="12.9417532"><ele>37.0</ele><time>2026-04-04T10:06:14.691Z</time></trkpt><trkpt lat="43.7555751" lon="12.9418515"><ele>37.0</ele><time>2026-04-04T10:06:15.691Z</time></trkpt><trkpt lat="43.7555987" lon="12.9419595"><ele>37.0</ele><time>2026-04-04T10:06:16.691Z</time></trkpt><trkpt lat="43.7556172" lon="12.942063"><ele>37.0</ele><time>2026-04-04T10:06:17.69Z</time></trkpt><trkpt lat="43.7556372" lon="12.9421554"><ele>37.0</ele><time>2026-04-04T10:06:18.691Z</time></trkpt><trkpt lat="43.755651" lon="12.9422448"><ele>37.0</ele><time>2026-04-04T10:06:19.692Z</time></trkpt><trkpt lat="43.75567" lon="12.9423393"><ele>37.0</ele><time>2026-04-04T10:06:20.691Z</time></trkpt><trkpt lat="43.7556784" lon="12.9424385"><ele>37.0</ele><time>2026-04-04T10:06:21.691Z</time></trkpt><trkpt lat="43.7556897" lon="12.9425325"><ele>37.0</ele><time>2026-04-04T10:06:22.691Z</time></trkpt><trkpt lat="43.7556994" lon="12.9426224"><ele>36.75</ele><time>2026-04-04T10:06:23.692Z</time></trkpt><trkpt lat="43.7557239" lon="12.9427896"><ele>36.5</ele><time>2026-04-04T10:06:25.691Z</time></trkpt><trkpt lat="43.7557511" lon="12.9429489"><ele>36.25</ele><time>2026-04-04T10:06:27.691Z</time></trkpt><trkpt lat="43.7557818" lon="12.9430929"><ele>36.0</ele><time>2026-04-04T10:06:29.69Z</time></trkpt><trkpt lat="43.7558084" lon="12.9432277"><ele>36.0</ele><time>2026-04-04T10:06:31.692Z</time></trkpt><trkpt lat="43.7558407" lon="12.9433395"><ele>36.0</ele><time>2026-04-04T10:06:33.691Z</time></trkpt><trkpt lat="43.7558683" lon="12.9434179"><ele>36.0</ele><time>2026-04-04T10:06:35.691Z</time></trkpt><trkpt lat="43.7558918" lon="12.9435236"><ele>36.0</ele><time>2026-04-04T10:06:37.69Z</time></trkpt><trkpt lat="43.7559131" lon="12.94362"><ele>36.0</ele><time>2026-04-04T10:06:39.691Z</time></trkpt><trkpt lat="43.7559358" lon="12.9437208"><ele>36.0</ele><time>2026-04-04T10:06:41.691Z</time></trkpt><trkpt lat="43.7559558" lon="12.9438178"><ele>36.0</ele><time>2026-04-04T10:06:43.691Z</time></trkpt><trkpt lat="43.7559739" lon="12.9439052"><ele>36.0</ele><time>2026-04-04T10:06:46.69Z</time></trkpt><trkpt lat="43.7559889" lon="12.9440018"><ele>36.0</ele><time>2026-04-04T10:06:55.691Z</time></trkpt><trkpt lat="43.7560067" lon="12.9441094"><ele>36.0</ele><time>2026-04-04T10:06:58.69Z</time></trkpt><trkpt lat="43.7560318" lon="12.9442197"><ele>36.0</ele><time>2026-04-04T10:07:02.692Z</time></trkpt><trkpt lat="43.7560546" lon="12.9443064"><ele>36.0</ele><time>2026-04-04T10:07:04.691Z</time></trkpt><trkpt lat="43.7560967" lon="12.944421"><ele>35.666666666666664</ele><time>2026-04-04T10:07:07.692Z</time></trkpt><trkpt lat="43.7561286" lon="12.944522"><ele>35.333333333333336</ele><time>2026-04-04T10:07:09.69Z</time></trkpt><trkpt lat="43.7561458" lon="12.9446357"><ele>35.0</ele><time>2026-04-04T10:07:11.691Z</time></trkpt><trkpt lat="43.7561468" lon="12.9447246"><ele>34.66666666666667</ele><time>2026-04-04T10:07:13.692Z</time></trkpt><trkpt lat="43.7561843" lon="12.944824"><ele>34.333333333333336</ele><time>2026-04-04T10:07:16.692Z</time></trkpt><trkpt lat="43.7562055" lon="12.9449249"><ele>34.0</ele><time>2026-04-04T10:07:18.69Z</time></trkpt><trkpt lat="43.7562017" lon="12.9450285"><ele>34.0</ele><time>2026-04-04T10:07:20.691Z</time></trkpt><trkpt lat="43.7562069" lon="12.9451525"><ele>34.0</ele><time>2026-04-04T10:07:22.692Z</time></trkpt><trkpt lat="43.7561948" lon="12.9452734"><ele>34.0</ele><time>2026-04-04T10:07:24.69Z</time></trkpt><trkpt lat="43.7561824" lon="12.9453732"><ele>34.0</ele><time>2026-04-04T10:07:27.692Z</time></trkpt><trkpt lat="43.756175" lon="12.9454987"><ele>34.0</ele><time>2026-04-04T10:07:30.691Z</time></trkpt><trkpt lat="43.7561703" lon="12.9456375"><ele>34.0</ele><time>2026-04-04T10:07:32.691Z</time></trkpt><trkpt lat="43.7561571" lon="12.9458023"><ele>34.0</ele><time>2026-04-04T10:07:34.692Z</time></trkpt><trkpt lat="43.7561513" lon="12.9458936"><ele>34.0</ele><time>2026-04-04T10:07:35.69Z</time></trkpt><trkpt lat="43.7561471" lon="12.9459864"><ele>34.0</ele><time>2026-04-04T10:07:36.691Z</time></trkpt><trkpt lat="43.7561404" lon="12.9460894"><ele>34.0</ele><time>2026-04-04T10:07:37.693Z</time></trkpt><trkpt lat="43.7561366" lon="12.9461906"><ele>34.0</ele><time>2026-04-04T10:07:38.69Z</time></trkpt><trkpt lat="43.7561306" lon="12.9462869"><ele>34.0</ele><time>2026-04-04T10:07:39.69Z</time></trkpt><trkpt lat="43.7561167" lon="12.9464624"><ele>34.0</ele><time>2026-04-04T10:07:41.691Z</time></trkpt><trkpt lat="43.7561139" lon="12.9465514"><ele>34.0</ele><time>2026-04-04T10:07:42.69Z</time></trkpt><trkpt lat="43.7560996" lon="12.9466837"><ele>34.0</ele><time>2026-04-04T10:07:44.69Z</time></trkpt><trkpt lat="43.7560466" lon="12.94679"><ele>34.0</ele><time>2026-04-04T10:07:46.692Z</time></trkpt><trkpt lat="43.7560197" lon="12.9469012"><ele>34.0</ele><time>2026-04-04T10:07:48.691Z</time></trkpt><trkpt lat="43.7560149" lon="12.9470097"><ele>34.0</ele><time>2026-04-04T10:07:51.691Z</time></trkpt><trkpt lat="43.7560234" lon="12.9469055"><ele>34.0</ele><time>2026-04-04T10:13:04.69Z</time></trkpt><trkpt lat="43.756033" lon="12.9467687"><ele>34.0</ele><time>2026-04-04T10:13:07.69Z</time></trkpt><trkpt lat="43.7560301" lon="12.9466686"><ele>34.0</ele><time>2026-04-04T10:13:09.69Z</time></trkpt><trkpt lat="43.7560312" lon="12.9465468"><ele>34.0</ele><time>2026-04-04T10:13:12.69Z</time></trkpt><trkpt lat="43.7560405" lon="12.9464407"><ele>34.0</ele><time>2026-04-04T10:13:14.69Z</time></trkpt><trkpt lat="43.7560446" lon="12.9463172"><ele>34.0</ele><time>2026-04-04T10:13:16.691Z</time></trkpt><trkpt lat="43.7560561" lon="12.946182"><ele>34.0</ele><time>2026-04-04T10:13:18.691Z</time></trkpt><trkpt lat="43.7560703" lon="12.9460514"><ele>34.0</ele><time>2026-04-04T10:13:20.691Z</time></trkpt><trkpt lat="43.7560861" lon="12.9459361"><ele>34.0</ele><time>2026-04-04T10:13:22.691Z</time></trkpt><trkpt lat="43.756102" lon="12.9458141"><ele>34.0</ele><time>2026-04-04T10:13:24.69Z</time></trkpt><trkpt lat="43.7561094" lon="12.9457035"><ele>34.0</ele><time>2026-04-04T10:13:26.69Z</time></trkpt><trkpt lat="43.7561153" lon="12.9455822"><ele>34.0</ele><time>2026-04-04T10:13:28.69Z</time></trkpt><trkpt lat="43.7561191" lon="12.9454835"><ele>34.0</ele><time>2026-04-04T10:13:30.69Z</time></trkpt><trkpt lat="43.7561401" lon="12.9453911"><ele>34.0</ele><time>2026-04-04T10:13:33.691Z</time></trkpt><trkpt lat="43.7561354" lon="12.945299"><ele>34.0</ele><time>2026-04-04T10:13:37.69Z</time></trkpt><trkpt lat="43.7561355" lon="12.9452091"><ele>34.0</ele><time>2026-04-04T10:13:39.69Z</time></trkpt><trkpt lat="43.7561357" lon="12.9450867"><ele>34.0</ele><time>2026-04-04T10:13:41.69Z</time></trkpt><trkpt lat="43.7561467" lon="12.9449613"><ele>34.0</ele><time>2026-04-04T10:13:43.691Z</time></trkpt><trkpt lat="43.7561539" lon="12.9448373"><ele>34.0</ele><time>2026-04-04T10:13:45.689Z</time></trkpt><trkpt lat="43.7561477" lon="12.9447204"><ele>34.0</ele><time>2026-04-04T10:13:47.69Z</time></trkpt><trkpt lat="43.7561298" lon="12.944594"><ele>34.0</ele><time>2026-04-04T10:13:49.69Z</time></trkpt><trkpt lat="43.7561135" lon="12.9444857"><ele>34.0</ele><time>2026-04-04T10:13:51.69Z</time></trkpt><trkpt lat="43.7560824" lon="12.944391"><ele>34.0</ele><time>2026-04-04T10:13:53.69Z</time></trkpt><trkpt lat="43.7560566" lon="12.9443096"><ele>34.0</ele><time>2026-04-04T10:14:04.69Z</time></trkpt><trkpt lat="43.7560482" lon="12.9442004"><ele>34.16666666666667</ele><time>2026-04-04T10:14:10.691Z</time></trkpt><trkpt lat="43.7560248" lon="12.9441158"><ele>34.333333333333336</ele><time>2026-04-04T10:14:14.691Z</time></trkpt><trkpt lat="43.7560048" lon="12.9440195"><ele>34.5</ele><time>2026-04-04T10:14:53.69Z</time></trkpt><trkpt lat="43.7559838" lon="12.9439075"><ele>34.666666666666664</ele><time>2026-04-04T10:15:00.69Z</time></trkpt><trkpt lat="43.7559539" lon="12.9438057"><ele>34.83333333333333</ele><time>2026-04-04T10:15:02.69Z</time></trkpt><trkpt lat="43.755926" lon="12.9436967"><ele>35.0</ele><time>2026-04-04T10:15:04.691Z</time></trkpt><trkpt lat="43.7558962" lon="12.9435599"><ele>35.0</ele><time>2026-04-04T10:15:06.69Z</time></trkpt><trkpt lat="43.7558666" lon="12.9434164"><ele>35.0</ele><time>2026-04-04T10:15:08.69Z</time></trkpt><trkpt lat="43.7558224" lon="12.9432554"><ele>35.0</ele><time>2026-04-04T10:15:10.691Z</time></trkpt><trkpt lat="43.7557999" lon="12.9431632"><ele>35.0</ele><time>2026-04-04T10:15:11.689Z</time></trkpt><trkpt lat="43.755779" lon="12.9430696"><ele>35.0</ele><time>2026-04-04T10:15:12.689Z</time></trkpt><trkpt lat="43.7557613" lon="12.9429857"><ele>35.0</ele><time>2026-04-04T10:15:13.69Z</time></trkpt><trkpt lat="43.7557463" lon="12.9428982"><ele>35.142857142857146</ele><time>2026-04-04T10:15:14.69Z</time></trkpt><trkpt lat="43.7557364" lon="12.9428075"><ele>35.285714285714285</ele><time>2026-04-04T10:15:15.691Z</time></trkpt><trkpt lat="43.7557213" lon="12.9427168"><ele>35.42857142857143</ele><time>2026-04-04T10:15:16.691Z</time></trkpt><trkpt lat="43.755702" lon="12.9426082"><ele>35.57142857142857</ele><time>2026-04-04T10:15:17.691Z</time></trkpt><trkpt lat="43.7556895" lon="12.9425018"><ele>35.714285714285715</ele><time>2026-04-04T10:15:18.689Z</time></trkpt><trkpt lat="43.7556742" lon="12.9423927"><ele>35.85714285714286</ele><time>2026-04-04T10:15:19.69Z</time></trkpt><trkpt lat="43.7556686" lon="12.9422932"><ele>36.0</ele><time>2026-04-04T10:15:20.69Z</time></trkpt><trkpt lat="43.7556532" lon="12.9421935"><ele>36.0</ele><time>2026-04-04T10:15:21.691Z</time></trkpt><trkpt lat="43.7556333" lon="12.9420905"><ele>36.0</ele><time>2026-04-04T10:15:22.69Z</time></trkpt><trkpt lat="43.7556104" lon="12.9419728"><ele>36.0</ele><time>2026-04-04T10:15:23.691Z</time></trkpt><trkpt lat="43.7555839" lon="12.9418639"><ele>36.0</ele><time>2026-04-04T10:15:24.689Z</time></trkpt><trkpt lat="43.7555612" lon="12.9417543"><ele>36.0</ele><time>2026-04-04T10:15:25.69Z</time></trkpt><trkpt lat="43.7555403" lon="12.9416422"><ele>36.0</ele><time>2026-04-04T10:15:26.69Z</time></trkpt><trkpt lat="43.7555137" lon="12.9415392"><ele>36.0</ele><time>2026-04-04T10:15:27.69Z</time></trkpt><trkpt lat="43.7554895" lon="12.9414223"><ele>36.0</ele><time>2026-04-04T10:15:28.69Z</time></trkpt><trkpt lat="43.7554695" lon="12.9413015"><ele>36.0</ele><time>2026-04-04T10:15:29.691Z</time></trkpt><trkpt lat="43.7554478" lon="12.9411819"><ele>36.0</ele><time>2026-04-04T10:15:30.69Z</time></trkpt><trkpt lat="43.755426" lon="12.9410707"><ele>36.0</ele><time>2026-04-04T10:15:31.69Z</time></trkpt><trkpt lat="43.7554149" lon="12.9409514"><ele>36.0</ele><time>2026-04-04T10:15:32.69Z</time></trkpt><trkpt lat="43.7553952" lon="12.9408277"><ele>36.166666666666664</ele><time>2026-04-04T10:15:33.691Z</time></trkpt><trkpt lat="43.7553682" lon="12.9406799"><ele>36.333333333333336</ele><time>2026-04-04T10:15:34.69Z</time></trkpt><trkpt lat="43.7553443" lon="12.9405813"><ele>36.5</ele><time>2026-04-04T10:15:35.689Z</time></trkpt><trkpt lat="43.7553229" lon="12.9404649"><ele>36.66666666666667</ele><time>2026-04-04T10:15:36.69Z</time></trkpt><trkpt lat="43.755304" lon="12.9403547"><ele>36.833333333333336</ele><time>2026-04-04T10:15:37.689Z</time></trkpt><trkpt lat="43.7552762" lon="12.9402494"><ele>37.0</ele><time>2026-04-04T10:15:38.69Z</time></trkpt><trkpt lat="43.7552486" lon="12.9401272"><ele>37.0</ele><time>2026-04-04T10:15:39.689Z</time></trkpt><trkpt lat="43.7552203" lon="12.9399978"><ele>37.0</ele><time>2026-04-04T10:15:40.69Z</time></trkpt><trkpt lat="43.7551943" lon="12.9398819"><ele>37.0</ele><time>2026-04-04T10:15:41.689Z</time></trkpt><trkpt lat="43.7551777" lon="12.9397605"><ele>37.0</ele><time>2026-04-04T10:15:42.691Z</time></trkpt><trkpt lat="43.7551492" lon="12.939643"><ele>37.0</ele><time>2026-04-04T10:15:43.69Z</time></trkpt><trkpt lat="43.7551375" lon="12.9395305"><ele>37.0</ele><time>2026-04-04T10:15:44.69Z</time></trkpt><trkpt lat="43.7551115" lon="12.9394435"><ele>37.2</ele><time>2026-04-04T10:15:45.691Z</time></trkpt><trkpt lat="43.7550803" lon="12.9393122"><ele>37.400000000000006</ele><time>2026-04-04T10:15:46.69Z</time></trkpt><trkpt lat="43.7550505" lon="12.9391731"><ele>37.599999999999994</ele><time>2026-04-04T10:15:48.69Z</time></trkpt><trkpt lat="43.7549918" lon="12.9390298"><ele>37.8</ele><time>2026-04-04T10:15:50.69Z</time></trkpt><trkpt lat="43.7549602" lon="12.9388978"><ele>38.0</ele><time>2026-04-04T10:15:52.691Z</time></trkpt><trkpt lat="43.7549392" lon="12.9387842"><ele>37.666666666666664</ele><time>2026-04-04T10:15:54.69Z</time></trkpt><trkpt lat="43.7549119" lon="12.9387049"><ele>37.33333333333333</ele><time>2026-04-04T10:15:56.689Z</time></trkpt><trkpt lat="43.7548463" lon="12.9386682"><ele>37.0</ele><time>2026-04-04T10:15:58.689Z</time></trkpt><trkpt lat="43.7547632" lon="12.9387153"><ele>36.666666666666664</ele><time>2026-04-04T10:16:01.691Z</time></trkpt><trkpt lat="43.7547073" lon="12.9387611"><ele>36.333333333333336</ele><time>2026-04-04T10:16:03.689Z</time></trkpt><trkpt lat="43.7547228" lon="12.9388702"><ele>36.0</ele><time>2026-04-04T10:16:11.69Z</time></trkpt><trkpt lat="43.7547765" lon="12.9389835"><ele>36.0</ele><time>2026-04-04T10:16:13.691Z</time></trkpt><trkpt lat="43.7548192" lon="12.9391268"><ele>36.0</ele><time>2026-04-04T10:16:15.69Z</time></trkpt><trkpt lat="43.7548395" lon="12.9392104"><ele>36.0</ele><time>2026-04-04T10:16:16.689Z</time></trkpt><trkpt lat="43.7548594" lon="12.9392934"><ele>36.0</ele><time>2026-04-04T10:16:17.69Z</time></trkpt><trkpt lat="43.7548785" lon="12.9393866"><ele>36.0</ele><time>2026-04-04T10:16:18.689Z</time></trkpt><trkpt lat="43.7549124" lon="12.9395447"><ele>36.0</ele><time>2026-04-04T10:16:20.69Z</time></trkpt><trkpt lat="43.7549297" lon="12.9396511"><ele>36.4</ele><time>2026-04-04T10:16:21.689Z</time></trkpt><trkpt lat="43.7549444" lon="12.9397447"><ele>36.8</ele><time>2026-04-04T10:16:22.689Z</time></trkpt><trkpt lat="43.7549906" lon="12.9399247"><ele>37.199999999999996</ele><time>2026-04-04T10:16:24.69Z</time></trkpt><trkpt lat="43.755014" lon="12.9400112"><ele>37.6</ele><time>2026-04-04T10:16:25.691Z</time></trkpt><trkpt lat="43.7550382" lon="12.9400947"><ele>38.0</ele><time>2026-04-04T10:16:26.691Z</time></trkpt><trkpt lat="43.7550679" lon="12.9402558"><ele>38.0</ele><time>2026-04-04T10:16:28.689Z</time></trkpt><trkpt lat="43.7550878" lon="12.9404072"><ele>38.0</ele><time>2026-04-04T10:16:30.689Z</time></trkpt><trkpt lat="43.7551173" lon="12.9405395"><ele>38.0</ele><time>2026-04-04T10:16:32.689Z</time></trkpt><trkpt lat="43.7551493" lon="12.9406589"><ele>38.0</ele><time>2026-04-04T10:16:34.691Z</time></trkpt><trkpt lat="43.7551582" lon="12.9408002"><ele>38.0</ele><time>2026-04-04T10:16:36.69Z</time></trkpt><trkpt lat="43.7551894" lon="12.940917"><ele>37.666666666666664</ele><time>2026-04-04T10:16:38.689Z</time></trkpt><trkpt lat="43.7552117" lon="12.941023"><ele>37.33333333333333</ele><time>2026-04-04T10:16:40.69Z</time></trkpt><trkpt lat="43.7552298" lon="12.9411369"><ele>37.0</ele><time>2026-04-04T10:16:43.689Z</time></trkpt><trkpt lat="43.7552209" lon="12.9412355"><ele>36.666666666666664</ele><time>2026-04-04T10:16:46.689Z</time></trkpt><trkpt lat="43.7552602" lon="12.9411657"><ele>36.333333333333336</ele><time>2026-04-04T10:17:02.69Z</time></trkpt><trkpt lat="43.7552452" lon="12.9410502"><ele>36.0</ele><time>2026-04-04T10:17:04.689Z</time></trkpt><trkpt lat="43.7552137" lon="12.9408939"><ele>36.5</ele><time>2026-04-04T10:17:06.69Z</time></trkpt><trkpt lat="43.7551635" lon="12.9407413"><ele>37.0</ele><time>2026-04-04T10:17:08.69Z</time></trkpt><trkpt lat="43.7551662" lon="12.9406047"><ele>37.5</ele><time>2026-04-04T10:17:10.69Z</time></trkpt><trkpt lat="43.7551362" lon="12.9404518"><ele>38.0</ele><time>2026-04-04T10:17:12.691Z</time></trkpt><trkpt lat="43.7551105" lon="12.9402842"><ele>38.0</ele><time>2026-04-04T10:17:14.69Z</time></trkpt><trkpt lat="43.7550798" lon="12.9402061"><ele>38.0</ele><time>2026-04-04T10:17:15.69Z</time></trkpt><trkpt lat="43.7550324" lon="12.9400522"><ele>38.0</ele><time>2026-04-04T10:17:17.69Z</time></trkpt><trkpt lat="43.7550047" lon="12.9399563"><ele>38.0</ele><time>2026-04-04T10:17:18.691Z</time></trkpt><trkpt lat="43.7549741" lon="12.9398631"><ele>38.0</ele><time>2026-04-04T10:17:19.691Z</time></trkpt><trkpt lat="43.7549412" lon="12.9396751"><ele>38.0</ele><time>2026-04-04T10:17:21.689Z</time></trkpt><trkpt lat="43.7549158" lon="12.9395786"><ele>38.0</ele><time>2026-04-04T10:17:22.69Z</time></trkpt><trkpt lat="43.7548875" lon="12.9394018"><ele>38.0</ele><time>2026-04-04T10:17:24.69Z</time></trkpt><trkpt lat="43.7548693" lon="12.9393068"><ele>38.0</ele><time>2026-04-04T10:17:25.69Z</time></trkpt><trkpt lat="43.7548423" lon="12.9391955"><ele>38.0</ele><time>2026-04-04T10:17:26.69Z</time></trkpt><trkpt lat="43.7548104" lon="12.9390301"><ele>37.666666666666664</ele><time>2026-04-04T10:17:28.69Z</time></trkpt><trkpt lat="43.7547697" lon="12.9389337"><ele>37.33333333333333</ele><time>2026-04-04T10:17:30.689Z</time></trkpt><trkpt lat="43.7547416" lon="12.9388547"><ele>37.0</ele><time>2026-04-04T10:17:32.691Z</time></trkpt><trkpt lat="43.7546711" lon="12.9388143"><ele>36.666666666666664</ele><time>2026-04-04T10:17:35.69Z</time></trkpt><trkpt lat="43.7545697" lon="12.938848"><ele>36.333333333333336</ele><time>2026-04-04T10:17:37.692Z</time></trkpt><trkpt lat="43.7544545" lon="12.9388837"><ele>36.0</ele><time>2026-04-04T10:17:39.69Z</time></trkpt><trkpt lat="43.7543934" lon="12.9389054"><ele>36.142857142857146</ele><time>2026-04-04T10:17:40.69Z</time></trkpt><trkpt lat="43.7542768" lon="12.938945"><ele>36.285714285714285</ele><time>2026-04-04T10:17:42.69Z</time></trkpt><trkpt lat="43.7542147" lon="12.9389633"><ele>36.42857142857143</ele><time>2026-04-04T10:17:43.689Z</time></trkpt><trkpt lat="43.7541471" lon="12.9389853"><ele>36.57142857142857</ele><time>2026-04-04T10:17:44.69Z</time></trkpt><trkpt lat="43.7540838" lon="12.9390045"><ele>36.714285714285715</ele><time>2026-04-04T10:17:45.689Z</time></trkpt><trkpt lat="43.7540196" lon="12.9390247"><ele>36.85714285714286</ele><time>2026-04-04T10:17:46.69Z</time></trkpt><trkpt lat="43.7539585" lon="12.9390512"><ele>37.0</ele><time>2026-04-04T10:17:47.691Z</time></trkpt><trkpt lat="43.753895" lon="12.9390757"><ele>37.0</ele><time>2026-04-04T10:17:48.69Z</time></trkpt><trkpt lat="43.7538277" lon="12.9391057"><ele>37.0</ele><time>2026-04-04T10:17:49.691Z</time></trkpt><trkpt lat="43.7537575" lon="12.9391303"><ele>37.0</ele><time>2026-04-04T10:17:50.689Z</time></trkpt><trkpt lat="43.7536952" lon="12.9391495"><ele>37.0</ele><time>2026-04-04T10:17:51.689Z</time></trkpt><trkpt lat="43.75363" lon="12.9391697"><ele>37.0</ele><time>2026-04-04T10:17:52.69Z</time></trkpt><trkpt lat="43.7535658" lon="12.939193"><ele>37.0</ele><time>2026-04-04T10:17:53.689Z</time></trkpt><trkpt lat="43.7535032" lon="12.939211"><ele>37.0</ele><time>2026-04-04T10:17:54.689Z</time></trkpt><trkpt lat="43.7534395" lon="12.9392321"><ele>36.800000000000004</ele><time>2026-04-04T10:17:55.69Z</time></trkpt><trkpt lat="43.7533733" lon="12.9392522"><ele>36.6</ele><time>2026-04-04T10:17:56.69Z</time></trkpt><trkpt lat="43.7533114" lon="12.9392758"><ele>36.400000000000006</ele><time>2026-04-04T10:17:57.69Z</time></trkpt><trkpt lat="43.7531925" lon="12.9393185"><ele>36.2</ele><time>2026-04-04T10:17:59.69Z</time></trkpt><trkpt lat="43.7530709" lon="12.9393613"><ele>36.0</ele><time>2026-04-04T10:18:01.689Z</time></trkpt><trkpt lat="43.7529551" lon="12.9393946"><ele>36.0</ele><time>2026-04-04T10:18:03.689Z</time></trkpt><trkpt lat="43.752838" lon="12.9394274"><ele>36.0</ele><time>2026-04-04T10:18:05.689Z</time></trkpt><trkpt lat="43.752744" lon="12.9394582"><ele>36.0</ele><time>2026-04-04T10:18:07.69Z</time></trkpt><trkpt lat="43.752687" lon="12.9394984"><ele>36.0</ele><time>2026-04-04T10:18:10.69Z</time></trkpt><trkpt lat="43.7526527" lon="12.9395825"><ele>36.0</ele><time>2026-04-04T10:18:15.689Z</time></trkpt><trkpt lat="43.7526368" lon="12.9397172"><ele>36.0</ele><time>2026-04-04T10:18:18.69Z</time></trkpt><trkpt lat="43.7526459" lon="12.9399074"><ele>36.0</ele><time>2026-04-04T10:18:20.69Z</time></trkpt><trkpt lat="43.7526656" lon="12.940018"><ele>36.0</ele><time>2026-04-04T10:18:21.691Z</time></trkpt><trkpt lat="43.7526862" lon="12.9401399"><ele>36.0</ele><time>2026-04-04T10:18:22.689Z</time></trkpt><trkpt lat="43.7527101" lon="12.940264"><ele>36.0</ele><time>2026-04-04T10:18:23.689Z</time></trkpt><trkpt lat="43.7527322" lon="12.940403"><ele>36.0</ele><time>2026-04-04T10:18:24.689Z</time></trkpt><trkpt lat="43.752758" lon="12.9405465"><ele>36.0</ele><time>2026-04-04T10:18:25.69Z</time></trkpt><trkpt lat="43.7527827" lon="12.9406988"><ele>36.0</ele><time>2026-04-04T10:18:26.689Z</time></trkpt><trkpt lat="43.7528077" lon="12.9408519"><ele>36.0</ele><time>2026-04-04T10:18:27.691Z</time></trkpt><trkpt lat="43.752833" lon="12.941004"><ele>36.0</ele><time>2026-04-04T10:18:28.69Z</time></trkpt><trkpt lat="43.7528617" lon="12.9411562"><ele>36.0</ele><time>2026-04-04T10:18:29.691Z</time></trkpt><trkpt lat="43.7528905" lon="12.9413047"><ele>36.0</ele><time>2026-04-04T10:18:30.69Z</time></trkpt><trkpt lat="43.7529219" lon="12.9414571"><ele>36.0</ele><time>2026-04-04T10:18:31.69Z</time></trkpt><trkpt lat="43.7529509" lon="12.9416129"><ele>36.0</ele><time>2026-04-04T10:18:32.689Z</time></trkpt><trkpt lat="43.7529809" lon="12.941772"><ele>36.25</ele><time>2026-04-04T10:18:33.69Z</time></trkpt><trkpt lat="43.7530106" lon="12.9419385"><ele>36.5</ele><time>2026-04-04T10:18:34.689Z</time></trkpt><trkpt lat="43.7530414" lon="12.9421018"><ele>36.75</ele><time>2026-04-04T10:18:35.691Z</time></trkpt><trkpt lat="43.7530689" lon="12.942271"><ele>37.0</ele><time>2026-04-04T10:18:36.689Z</time></trkpt><trkpt lat="43.7530971" lon="12.9424416"><ele>36.5</ele><time>2026-04-04T10:18:37.69Z</time></trkpt><trkpt lat="43.7531271" lon="12.942614"><ele>36.0</ele><time>2026-04-04T10:18:38.69Z</time></trkpt><trkpt lat="43.7531675" lon="12.9428071"><ele>35.5</ele><time>2026-04-04T10:18:39.691Z</time></trkpt><trkpt lat="43.7531967" lon="12.9429919"><ele>35.0</ele><time>2026-04-04T10:18:40.689Z</time></trkpt><trkpt lat="43.7532329" lon="12.9431732"><ele>35.0</ele><time>2026-04-04T10:18:41.69Z</time></trkpt><trkpt lat="43.7532671" lon="12.9433602"><ele>35.0</ele><time>2026-04-04T10:18:42.689Z</time></trkpt><trkpt lat="43.7533007" lon="12.9435465"><ele>35.0</ele><time>2026-04-04T10:18:43.69Z</time></trkpt><trkpt lat="43.7533314" lon="12.9437325"><ele>35.0</ele><time>2026-04-04T10:18:44.689Z</time></trkpt><trkpt lat="43.7533671" lon="12.9439117"><ele>35.5</ele><time>2026-04-04T10:18:45.689Z</time></trkpt><trkpt lat="43.753396" lon="12.944088"><ele>36.0</ele><time>2026-04-04T10:18:46.69Z</time></trkpt><trkpt lat="43.753426" lon="12.9442535"><ele>36.5</ele><time>2026-04-04T10:18:47.689Z</time></trkpt><trkpt lat="43.7534528" lon="12.9444054"><ele>37.0</ele><time>2026-04-04T10:18:48.69Z</time></trkpt><trkpt lat="43.7534815" lon="12.9445544"><ele>37.0</ele><time>2026-04-04T10:18:49.69Z</time></trkpt><trkpt lat="43.7535059" lon="12.944696"><ele>37.0</ele><time>2026-04-04T10:18:50.69Z</time></trkpt><trkpt lat="43.7535229" lon="12.9448194"><ele>37.0</ele><time>2026-04-04T10:18:51.689Z</time></trkpt><trkpt lat="43.7535216" lon="12.9449374"><ele>37.0</ele><time>2026-04-04T10:18:52.689Z</time></trkpt><trkpt lat="43.753499" lon="12.945055"><ele>37.0</ele><time>2026-04-04T10:18:53.689Z</time></trkpt><trkpt lat="43.753451" lon="12.9451322"><ele>37.0</ele><time>2026-04-04T10:18:54.69Z</time></trkpt><trkpt lat="43.7533805" lon="12.9451877"><ele>37.0</ele><time>2026-04-04T10:18:55.689Z</time></trkpt><trkpt lat="43.7532965" lon="12.9452276"><ele>37.0</ele><time>2026-04-04T10:18:56.69Z</time></trkpt><trkpt lat="43.7532045" lon="12.9452609"><ele>37.0</ele><time>2026-04-04T10:18:57.691Z</time></trkpt><trkpt lat="43.7531061" lon="12.9452927"><ele>37.0</ele><time>2026-04-04T10:18:58.69Z</time></trkpt><trkpt lat="43.7530007" lon="12.9453278"><ele>37.0</ele><time>2026-04-04T10:18:59.691Z</time></trkpt><trkpt lat="43.7528962" lon="12.9453663"><ele>37.0</ele><time>2026-04-04T10:19:00.69Z</time></trkpt><trkpt lat="43.7527859" lon="12.9453997"><ele>37.0</ele><time>2026-04-04T10:19:01.689Z</time></trkpt><trkpt lat="43.7526665" lon="12.9454269"><ele>37.0</ele><time>2026-04-04T10:19:02.69Z</time></trkpt><trkpt lat="43.7525479" lon="12.9454505"><ele>37.0</ele><time>2026-04-04T10:19:03.689Z</time></trkpt><trkpt lat="43.7524303" lon="12.9454866"><ele>37.25</ele><time>2026-04-04T10:19:04.689Z</time></trkpt><trkpt lat="43.7523144" lon="12.9455321"><ele>37.5</ele><time>2026-04-04T10:19:05.691Z</time></trkpt><trkpt lat="43.7522001" lon="12.9455814"><ele>37.75</ele><time>2026-04-04T10:19:06.689Z</time></trkpt><trkpt lat="43.7520879" lon="12.9456357"><ele>38.0</ele><time>2026-04-04T10:19:07.69Z</time></trkpt><trkpt lat="43.7519806" lon="12.9456919"><ele>38.0</ele><time>2026-04-04T10:19:08.69Z</time></trkpt><trkpt lat="43.7518693" lon="12.945745"><ele>38.0</ele><time>2026-04-04T10:19:09.689Z</time></trkpt><trkpt lat="43.7517683" lon="12.9458036"><ele>38.0</ele><time>2026-04-04T10:19:10.689Z</time></trkpt><trkpt lat="43.7516782" lon="12.9458556"><ele>38.0</ele><time>2026-04-04T10:19:11.689Z</time></trkpt><trkpt lat="43.7515934" lon="12.9459022"><ele>38.0</ele><time>2026-04-04T10:19:12.689Z</time></trkpt><trkpt lat="43.7515218" lon="12.9459579"><ele>38.166666666666664</ele><time>2026-04-04T10:19:13.69Z</time></trkpt><trkpt lat="43.7514576" lon="12.9460296"><ele>38.33333333333333</ele><time>2026-04-04T10:19:14.689Z</time></trkpt><trkpt lat="43.7514192" lon="12.946123"><ele>38.5</ele><time>2026-04-04T10:19:15.69Z</time></trkpt><trkpt lat="43.7514079" lon="12.94623"><ele>38.666666666666664</ele><time>2026-04-04T10:19:16.69Z</time></trkpt><trkpt lat="43.7514125" lon="12.9463473"><ele>38.833333333333336</ele><time>2026-04-04T10:19:17.691Z</time></trkpt><trkpt lat="43.7514168" lon="12.9464619"><ele>39.0</ele><time>2026-04-04T10:19:18.69Z</time></trkpt><trkpt lat="43.7514329" lon="12.9465867"><ele>39.0</ele><time>2026-04-04T10:19:19.689Z</time></trkpt><trkpt lat="43.7514731" lon="12.946711"><ele>39.0</ele><time>2026-04-04T10:19:20.689Z</time></trkpt><trkpt lat="43.7515125" lon="12.9468393"><ele>39.0</ele><time>2026-04-04T10:19:21.69Z</time></trkpt><trkpt lat="43.7515554" lon="12.946966"><ele>39.0</ele><time>2026-04-04T10:19:22.689Z</time></trkpt><trkpt lat="43.7516054" lon="12.9470942"><ele>39.0</ele><time>2026-04-04T10:19:23.689Z</time></trkpt><trkpt lat="43.7516548" lon="12.9472164"><ele>39.4</ele><time>2026-04-04T10:19:24.69Z</time></trkpt><trkpt lat="43.7516888" lon="12.9473526"><ele>39.8</ele><time>2026-04-04T10:19:25.689Z</time></trkpt><trkpt lat="43.7517078" lon="12.9474903"><ele>40.199999999999996</ele><time>2026-04-04T10:19:26.689Z</time></trkpt><trkpt lat="43.7516934" lon="12.9476307"><ele>40.599999999999994</ele><time>2026-04-04T10:19:27.691Z</time></trkpt><trkpt lat="43.751659" lon="12.9477576"><ele>41.0</ele><time>2026-04-04T10:19:28.691Z</time></trkpt><trkpt lat="43.7516057" lon="12.9478761"><ele>41.0</ele><time>2026-04-04T10:19:29.689Z</time></trkpt><trkpt lat="43.7515354" lon="12.9479877"><ele>41.0</ele><time>2026-04-04T10:19:30.691Z</time></trkpt><trkpt lat="43.7514559" lon="12.9480976"><ele>41.0</ele><time>2026-04-04T10:19:31.691Z</time></trkpt><trkpt lat="43.7513852" lon="12.9481982"><ele>41.0</ele><time>2026-04-04T10:19:32.69Z</time></trkpt><trkpt lat="43.7512991" lon="12.9483138"><ele>41.0</ele><time>2026-04-04T10:19:33.69Z</time></trkpt><trkpt lat="43.7512111" lon="12.9484213"><ele>41.25</ele><time>2026-04-04T10:19:34.69Z</time></trkpt><trkpt lat="43.7511237" lon="12.9485287"><ele>41.5</ele><time>2026-04-04T10:19:35.689Z</time></trkpt><trkpt lat="43.751044" lon="12.9486361"><ele>41.75</ele><time>2026-04-04T10:19:36.69Z</time></trkpt><trkpt lat="43.750957" lon="12.948748"><ele>42.0</ele><time>2026-04-04T10:19:37.69Z</time></trkpt><trkpt lat="43.7508639" lon="12.9488693"><ele>42.75</ele><time>2026-04-04T10:19:38.689Z</time></trkpt><trkpt lat="43.7507779" lon="12.9489801"><ele>43.5</ele><time>2026-04-04T10:19:39.689Z</time></trkpt><trkpt lat="43.7506938" lon="12.9491018"><ele>44.25</ele><time>2026-04-04T10:19:40.69Z</time></trkpt><trkpt lat="43.7506145" lon="12.9492138"><ele>45.0</ele><time>2026-04-04T10:19:41.689Z</time></trkpt><trkpt lat="43.7505374" lon="12.9493211"><ele>45.333333333333336</ele><time>2026-04-04T10:19:42.689Z</time></trkpt><trkpt lat="43.7504644" lon="12.9494177"><ele>45.666666666666664</ele><time>2026-04-04T10:19:43.69Z</time></trkpt><trkpt lat="43.7503874" lon="12.9495135"><ele>46.0</ele><time>2026-04-04T10:19:44.69Z</time></trkpt><trkpt lat="43.7503218" lon="12.9495976"><ele>46.33333333333333</ele><time>2026-04-04T10:19:45.689Z</time></trkpt><trkpt lat="43.7502684" lon="12.9496653"><ele>46.666666666666664</ele><time>2026-04-04T10:19:46.69Z</time></trkpt><trkpt lat="43.7502208" lon="12.9497314"><ele>47.0</ele><time>2026-04-04T10:19:47.689Z</time></trkpt><trkpt lat="43.7501355" lon="12.949834"><ele>47.14285714285714</ele><time>2026-04-04T10:19:49.691Z</time></trkpt><trkpt lat="43.7500857" lon="12.9499007"><ele>47.285714285714285</ele><time>2026-04-04T10:19:51.69Z</time></trkpt><trkpt lat="43.750031" lon="12.9499507"><ele>47.42857142857143</ele><time>2026-04-04T10:20:38.689Z</time></trkpt><trkpt lat="43.7499644" lon="12.949926"><ele>47.57142857142857</ele><time>2026-04-04T10:20:41.689Z</time></trkpt><trkpt lat="43.7499057" lon="12.9498577"><ele>47.714285714285715</ele><time>2026-04-04T10:20:43.69Z</time></trkpt><trkpt lat="43.7498458" lon="12.9497842"><ele>47.857142857142854</ele><time>2026-04-04T10:20:45.689Z</time></trkpt><trkpt lat="43.7497839" lon="12.9497107"><ele>48.0</ele><time>2026-04-04T10:20:47.69Z</time></trkpt><trkpt lat="43.7497276" lon="12.9496425"><ele>48.0</ele><time>2026-04-04T10:20:49.689Z</time></trkpt><trkpt lat="43.749659" lon="12.9495631"><ele>48.0</ele><time>2026-04-04T10:20:52.69Z</time></trkpt><trkpt lat="43.7496595" lon="12.9494683"><ele>48.0</ele><time>2026-04-04T10:20:56.689Z</time></trkpt><trkpt lat="43.7497136" lon="12.9494018"><ele>48.0</ele><time>2026-04-04T10:21:00.69Z</time></trkpt><trkpt lat="43.7496465" lon="12.94941"><ele>48.0</ele><time>2026-04-04T10:21:32.689Z</time></trkpt><trkpt lat="43.7497173" lon="12.9494165"><ele>48.0</ele><time>2026-04-04T10:21:39.688Z</time></trkpt></trkseg></trk></gpx>